<?xml version="1.0" encoding="UTF-8" standalone="no" ?>
<gpx xmlns="http://www.topografix.com/GPX/1/1" xmlns:xsi="http://www.w3.org/2001/XMLSchema-instance" xsi:schemaLocation="http://www.topografix.com/GPX/1/1 http://www.topografix.com/GPX/1/1/gpx.xsd" version="1.1" creator="VisuGPX - https://www.visugpx.com">
  <metadata>
    <name>Trek au Ladakh</name>
    <desc><![CDATA[Trek au Ladakh - Septembre 2015]]></desc>
  </metadata>
  <trk>
    <name><![CDATA[Ballade de Nimaling pour aller voir le camp de base du Kang Yatse (5310m)]]></name>
    <trkseg>
      <trkpt lat="33.7859" lon="77.59592">
        <ele>4868.8</ele>
        <time>2015-09-04T07:56:35Z</time>
      </trkpt>
      <trkpt lat="33.78591" lon="77.59584">
        <ele>4868</ele>
        <time>2015-09-04T07:57:04Z</time>
      </trkpt>
      <trkpt lat="33.78585" lon="77.5957">
        <ele>4868.2</ele>
        <time>2015-09-04T07:57:20Z</time>
      </trkpt>
      <trkpt lat="33.78586" lon="77.59565">
        <ele>4867.8</ele>
        <time>2015-09-04T07:57:27Z</time>
      </trkpt>
      <trkpt lat="33.78581" lon="77.59544">
        <ele>4867.6</ele>
        <time>2015-09-04T07:57:50Z</time>
      </trkpt>
      <trkpt lat="33.78581" lon="77.59543">
        <ele>4867.6</ele>
        <time>2015-09-04T07:57:51Z</time>
      </trkpt>
      <trkpt lat="33.78577" lon="77.59521">
        <ele>4867.2</ele>
        <time>2015-09-04T07:58:12Z</time>
      </trkpt>
      <trkpt lat="33.7857" lon="77.595">
        <ele>4866.8</ele>
        <time>2015-09-04T07:58:28Z</time>
      </trkpt>
      <trkpt lat="33.78569" lon="77.59494">
        <ele>4866.6</ele>
        <time>2015-09-04T07:58:32Z</time>
      </trkpt>
      <trkpt lat="33.78575" lon="77.59475">
        <ele>4866.8</ele>
        <time>2015-09-04T07:58:55Z</time>
      </trkpt>
      <trkpt lat="33.78575" lon="77.59463">
        <ele>4866.4</ele>
        <time>2015-09-04T07:59:20Z</time>
      </trkpt>
      <trkpt lat="33.78572" lon="77.59462">
        <ele>4866.4</ele>
        <time>2015-09-04T07:59:22Z</time>
      </trkpt>
      <trkpt lat="33.7857" lon="77.59444">
        <ele>4867.4</ele>
        <time>2015-09-04T07:59:44Z</time>
      </trkpt>
      <trkpt lat="33.78581" lon="77.59426">
        <ele>4866.8</ele>
        <time>2015-09-04T08:00:06Z</time>
      </trkpt>
      <trkpt lat="33.78587" lon="77.59403">
        <ele>4866.6</ele>
        <time>2015-09-04T08:00:24Z</time>
      </trkpt>
      <trkpt lat="33.78588" lon="77.59402">
        <ele>4866.8</ele>
        <time>2015-09-04T08:00:25Z</time>
      </trkpt>
      <trkpt lat="33.78591" lon="77.59388">
        <ele>4867.2</ele>
        <time>2015-09-04T08:00:40Z</time>
      </trkpt>
      <trkpt lat="33.78594" lon="77.59376">
        <ele>4867.8</ele>
        <time>2015-09-04T08:00:51Z</time>
      </trkpt>
      <trkpt lat="33.78592" lon="77.59368">
        <ele>4866.6</ele>
        <time>2015-09-04T08:01:04Z</time>
      </trkpt>
      <trkpt lat="33.78593" lon="77.59357">
        <ele>4866.4</ele>
        <time>2015-09-04T08:01:18Z</time>
      </trkpt>
      <trkpt lat="33.7859" lon="77.59353">
        <ele>4867.6</ele>
        <time>2015-09-04T08:01:35Z</time>
      </trkpt>
      <trkpt lat="33.78583" lon="77.59347">
        <ele>4868.8</ele>
        <time>2015-09-04T08:01:49Z</time>
      </trkpt>
      <trkpt lat="33.78575" lon="77.59339">
        <ele>4869.8</ele>
        <time>2015-09-04T08:02:04Z</time>
      </trkpt>
      <trkpt lat="33.78566" lon="77.59331">
        <ele>4870.8</ele>
        <time>2015-09-04T08:02:29Z</time>
      </trkpt>
      <trkpt lat="33.78562" lon="77.5932">
        <ele>4872</ele>
        <time>2015-09-04T08:02:56Z</time>
      </trkpt>
      <trkpt lat="33.78562" lon="77.59316">
        <ele>4872.2</ele>
        <time>2015-09-04T08:02:59Z</time>
      </trkpt>
      <trkpt lat="33.78559" lon="77.59306">
        <ele>4873</ele>
        <time>2015-09-04T08:03:18Z</time>
      </trkpt>
      <trkpt lat="33.78556" lon="77.59297">
        <ele>4874</ele>
        <time>2015-09-04T08:03:31Z</time>
      </trkpt>
      <trkpt lat="33.78557" lon="77.59294">
        <ele>4875</ele>
        <time>2015-09-04T08:03:42Z</time>
      </trkpt>
      <trkpt lat="33.78557" lon="77.59283">
        <ele>4876.2</ele>
        <time>2015-09-04T08:04:02Z</time>
      </trkpt>
      <trkpt lat="33.78557" lon="77.59274">
        <ele>4877.2</ele>
        <time>2015-09-04T08:04:22Z</time>
      </trkpt>
      <trkpt lat="33.78552" lon="77.59265">
        <ele>4878.2</ele>
        <time>2015-09-04T08:04:33Z</time>
      </trkpt>
      <trkpt lat="33.78548" lon="77.59256">
        <ele>4879.2</ele>
        <time>2015-09-04T08:04:46Z</time>
      </trkpt>
      <trkpt lat="33.78547" lon="77.59252">
        <ele>4880.4</ele>
        <time>2015-09-04T08:04:56Z</time>
      </trkpt>
      <trkpt lat="33.78544" lon="77.59249">
        <ele>4881.6</ele>
        <time>2015-09-04T08:05:10Z</time>
      </trkpt>
      <trkpt lat="33.78542" lon="77.59245">
        <ele>4882.6</ele>
        <time>2015-09-04T08:05:20Z</time>
      </trkpt>
      <trkpt lat="33.78542" lon="77.59242">
        <ele>4883.6</ele>
        <time>2015-09-04T08:05:30Z</time>
      </trkpt>
      <trkpt lat="33.78542" lon="77.59236">
        <ele>4884.8</ele>
        <time>2015-09-04T08:05:45Z</time>
      </trkpt>
      <trkpt lat="33.78535" lon="77.59226">
        <ele>4885.8</ele>
        <time>2015-09-04T08:05:57Z</time>
      </trkpt>
      <trkpt lat="33.78534" lon="77.59222">
        <ele>4886.8</ele>
        <time>2015-09-04T08:06:09Z</time>
      </trkpt>
      <trkpt lat="33.78532" lon="77.59223">
        <ele>4887.8</ele>
        <time>2015-09-04T08:06:24Z</time>
      </trkpt>
      <trkpt lat="33.78528" lon="77.5922">
        <ele>4888.8</ele>
        <time>2015-09-04T08:06:35Z</time>
      </trkpt>
      <trkpt lat="33.78526" lon="77.59217">
        <ele>4889.8</ele>
        <time>2015-09-04T08:06:44Z</time>
      </trkpt>
      <trkpt lat="33.78522" lon="77.59216">
        <ele>4890.8</ele>
        <time>2015-09-04T08:07:00Z</time>
      </trkpt>
      <trkpt lat="33.78519" lon="77.5921">
        <ele>4892</ele>
        <time>2015-09-04T08:07:11Z</time>
      </trkpt>
      <trkpt lat="33.78523" lon="77.59211">
        <ele>4893</ele>
        <time>2015-09-04T08:07:22Z</time>
      </trkpt>
      <trkpt lat="33.78519" lon="77.59201">
        <ele>4893.6</ele>
        <time>2015-09-04T08:07:32Z</time>
      </trkpt>
      <trkpt lat="33.78517" lon="77.59198">
        <ele>4894</ele>
        <time>2015-09-04T08:07:34Z</time>
      </trkpt>
      <trkpt lat="33.78517" lon="77.59198">
        <ele>4894</ele>
        <time>2015-09-04T08:07:35Z</time>
      </trkpt>
      <trkpt lat="33.78517" lon="77.59197">
        <ele>4894.2</ele>
        <time>2015-09-04T08:07:36Z</time>
      </trkpt>
      <trkpt lat="33.78516" lon="77.59194">
        <ele>4894.4</ele>
        <time>2015-09-04T08:07:40Z</time>
      </trkpt>
      <trkpt lat="33.78515" lon="77.59193">
        <ele>4895</ele>
        <time>2015-09-04T08:07:48Z</time>
      </trkpt>
      <trkpt lat="33.78515" lon="77.59191">
        <ele>4896.2</ele>
        <time>2015-09-04T08:07:58Z</time>
      </trkpt>
      <trkpt lat="33.78512" lon="77.59185">
        <ele>4897.2</ele>
        <time>2015-09-04T08:08:08Z</time>
      </trkpt>
      <trkpt lat="33.78509" lon="77.59186">
        <ele>4898.2</ele>
        <time>2015-09-04T08:08:19Z</time>
      </trkpt>
      <trkpt lat="33.78507" lon="77.59185">
        <ele>4899.2</ele>
        <time>2015-09-04T08:08:30Z</time>
      </trkpt>
      <trkpt lat="33.78504" lon="77.59181">
        <ele>4900.2</ele>
        <time>2015-09-04T08:08:44Z</time>
      </trkpt>
      <trkpt lat="33.78501" lon="77.5918">
        <ele>4901.2</ele>
        <time>2015-09-04T08:08:52Z</time>
      </trkpt>
      <trkpt lat="33.785" lon="77.5918">
        <ele>4901.2</ele>
        <time>2015-09-04T08:08:54Z</time>
      </trkpt>
      <trkpt lat="33.78499" lon="77.59174">
        <ele>4902.4</ele>
        <time>2015-09-04T08:09:03Z</time>
      </trkpt>
      <trkpt lat="33.78499" lon="77.59169">
        <ele>4903.2</ele>
        <time>2015-09-04T08:09:18Z</time>
      </trkpt>
      <trkpt lat="33.78499" lon="77.59169">
        <ele>4903.4</ele>
        <time>2015-09-04T08:09:19Z</time>
      </trkpt>
      <trkpt lat="33.78494" lon="77.59168">
        <ele>4904.4</ele>
        <time>2015-09-04T08:09:31Z</time>
      </trkpt>
      <trkpt lat="33.7849" lon="77.59164">
        <ele>4905</ele>
        <time>2015-09-04T08:09:42Z</time>
      </trkpt>
      <trkpt lat="33.78489" lon="77.59164">
        <ele>4905.2</ele>
        <time>2015-09-04T08:09:45Z</time>
      </trkpt>
      <trkpt lat="33.78487" lon="77.59169">
        <ele>4905.6</ele>
        <time>2015-09-04T08:09:48Z</time>
      </trkpt>
      <trkpt lat="33.78487" lon="77.59167">
        <ele>4906.6</ele>
        <time>2015-09-04T08:09:58Z</time>
      </trkpt>
      <trkpt lat="33.78485" lon="77.59163">
        <ele>4907.6</ele>
        <time>2015-09-04T08:10:15Z</time>
      </trkpt>
      <trkpt lat="33.78478" lon="77.59164">
        <ele>4908.8</ele>
        <time>2015-09-04T08:10:28Z</time>
      </trkpt>
      <trkpt lat="33.78476" lon="77.59161">
        <ele>4909.8</ele>
        <time>2015-09-04T08:10:37Z</time>
      </trkpt>
      <trkpt lat="33.78473" lon="77.59157">
        <ele>4910.8</ele>
        <time>2015-09-04T08:10:52Z</time>
      </trkpt>
      <trkpt lat="33.78473" lon="77.59157">
        <ele>4911.8</ele>
        <time>2015-09-04T08:11:00Z</time>
      </trkpt>
      <trkpt lat="33.78468" lon="77.59154">
        <ele>4913</ele>
        <time>2015-09-04T08:11:12Z</time>
      </trkpt>
      <trkpt lat="33.78463" lon="77.59153">
        <ele>4914</ele>
        <time>2015-09-04T08:11:23Z</time>
      </trkpt>
      <trkpt lat="33.78463" lon="77.5915">
        <ele>4915</ele>
        <time>2015-09-04T08:11:34Z</time>
      </trkpt>
      <trkpt lat="33.78462" lon="77.59148">
        <ele>4916.2</ele>
        <time>2015-09-04T08:11:44Z</time>
      </trkpt>
      <trkpt lat="33.7846" lon="77.59144">
        <ele>4916.6</ele>
        <time>2015-09-04T08:11:50Z</time>
      </trkpt>
      <trkpt lat="33.78459" lon="77.59142">
        <ele>4917.2</ele>
        <time>2015-09-04T08:11:56Z</time>
      </trkpt>
      <trkpt lat="33.78458" lon="77.59139">
        <ele>4918.2</ele>
        <time>2015-09-04T08:12:08Z</time>
      </trkpt>
      <trkpt lat="33.78454" lon="77.5914">
        <ele>4919.4</ele>
        <time>2015-09-04T08:12:19Z</time>
      </trkpt>
      <trkpt lat="33.78452" lon="77.59138">
        <ele>4920.4</ele>
        <time>2015-09-04T08:12:31Z</time>
      </trkpt>
      <trkpt lat="33.78451" lon="77.59136">
        <ele>4921.4</ele>
        <time>2015-09-04T08:12:45Z</time>
      </trkpt>
      <trkpt lat="33.78445" lon="77.59132">
        <ele>4922.6</ele>
        <time>2015-09-04T08:12:58Z</time>
      </trkpt>
      <trkpt lat="33.78437" lon="77.59135">
        <ele>4923.6</ele>
        <time>2015-09-04T08:13:12Z</time>
      </trkpt>
      <trkpt lat="33.78434" lon="77.59135">
        <ele>4924.6</ele>
        <time>2015-09-04T08:13:22Z</time>
      </trkpt>
      <trkpt lat="33.78429" lon="77.59132">
        <ele>4925.6</ele>
        <time>2015-09-04T08:13:34Z</time>
      </trkpt>
      <trkpt lat="33.78428" lon="77.59128">
        <ele>4926.6</ele>
        <time>2015-09-04T08:13:43Z</time>
      </trkpt>
      <trkpt lat="33.78428" lon="77.59117">
        <ele>4927.8</ele>
        <time>2015-09-04T08:13:59Z</time>
      </trkpt>
      <trkpt lat="33.78425" lon="77.59113">
        <ele>4928.8</ele>
        <time>2015-09-04T08:14:09Z</time>
      </trkpt>
      <trkpt lat="33.7842" lon="77.59112">
        <ele>4929.8</ele>
        <time>2015-09-04T08:14:18Z</time>
      </trkpt>
      <trkpt lat="33.78413" lon="77.5911">
        <ele>4931</ele>
        <time>2015-09-04T08:14:27Z</time>
      </trkpt>
      <trkpt lat="33.78408" lon="77.59103">
        <ele>4931.8</ele>
        <time>2015-09-04T08:14:51Z</time>
      </trkpt>
      <trkpt lat="33.7841" lon="77.59107">
        <ele>4932</ele>
        <time>2015-09-04T08:14:52Z</time>
      </trkpt>
      <trkpt lat="33.78411" lon="77.59105">
        <ele>4933</ele>
        <time>2015-09-04T08:15:06Z</time>
      </trkpt>
      <trkpt lat="33.78411" lon="77.59105">
        <ele>4934.2</ele>
        <time>2015-09-04T08:15:15Z</time>
      </trkpt>
      <trkpt lat="33.78407" lon="77.59099">
        <ele>4934.4</ele>
        <time>2015-09-04T08:15:19Z</time>
      </trkpt>
      <trkpt lat="33.78405" lon="77.59097">
        <ele>4934.6</ele>
        <time>2015-09-04T08:15:22Z</time>
      </trkpt>
      <trkpt lat="33.78404" lon="77.59096">
        <ele>4935.2</ele>
        <time>2015-09-04T08:15:26Z</time>
      </trkpt>
      <trkpt lat="33.78403" lon="77.59095">
        <ele>4936.2</ele>
        <time>2015-09-04T08:15:38Z</time>
      </trkpt>
      <trkpt lat="33.78401" lon="77.59095">
        <ele>4937.4</ele>
        <time>2015-09-04T08:15:46Z</time>
      </trkpt>
      <trkpt lat="33.784" lon="77.59095">
        <ele>4938.4</ele>
        <time>2015-09-04T08:15:55Z</time>
      </trkpt>
      <trkpt lat="33.78396" lon="77.59093">
        <ele>4939.4</ele>
        <time>2015-09-04T08:16:07Z</time>
      </trkpt>
      <trkpt lat="33.78393" lon="77.5909">
        <ele>4940.4</ele>
        <time>2015-09-04T08:16:19Z</time>
      </trkpt>
      <trkpt lat="33.7839" lon="77.5909">
        <ele>4940.8</ele>
        <time>2015-09-04T08:16:35Z</time>
      </trkpt>
      <trkpt lat="33.78391" lon="77.59092">
        <ele>4941.4</ele>
        <time>2015-09-04T08:16:56Z</time>
      </trkpt>
      <trkpt lat="33.78391" lon="77.59085">
        <ele>4942</ele>
        <time>2015-09-04T08:17:51Z</time>
      </trkpt>
      <trkpt lat="33.78394" lon="77.59087">
        <ele>4942</ele>
        <time>2015-09-04T08:17:53Z</time>
      </trkpt>
      <trkpt lat="33.78395" lon="77.59089">
        <ele>4942</ele>
        <time>2015-09-04T08:17:55Z</time>
      </trkpt>
      <trkpt lat="33.78395" lon="77.59088">
        <ele>4942.6</ele>
        <time>2015-09-04T08:17:58Z</time>
      </trkpt>
      <trkpt lat="33.78392" lon="77.59075">
        <ele>4943.6</ele>
        <time>2015-09-04T08:18:25Z</time>
      </trkpt>
      <trkpt lat="33.7839" lon="77.59069">
        <ele>4943.8</ele>
        <time>2015-09-04T08:18:30Z</time>
      </trkpt>
      <trkpt lat="33.78388" lon="77.59063">
        <ele>4943.8</ele>
        <time>2015-09-04T08:18:35Z</time>
      </trkpt>
      <trkpt lat="33.78387" lon="77.59052">
        <ele>4944.6</ele>
        <time>2015-09-04T08:18:52Z</time>
      </trkpt>
      <trkpt lat="33.78385" lon="77.59045">
        <ele>4945.8</ele>
        <time>2015-09-04T08:19:07Z</time>
      </trkpt>
      <trkpt lat="33.78388" lon="77.59045">
        <ele>4946.8</ele>
        <time>2015-09-04T08:19:21Z</time>
      </trkpt>
      <trkpt lat="33.78389" lon="77.59043">
        <ele>4947.8</ele>
        <time>2015-09-04T08:19:34Z</time>
      </trkpt>
      <trkpt lat="33.78384" lon="77.59045">
        <ele>4948.8</ele>
        <time>2015-09-04T08:19:45Z</time>
      </trkpt>
      <trkpt lat="33.78381" lon="77.5904">
        <ele>4950</ele>
        <time>2015-09-04T08:19:57Z</time>
      </trkpt>
      <trkpt lat="33.78382" lon="77.59036">
        <ele>4951</ele>
        <time>2015-09-04T08:20:11Z</time>
      </trkpt>
      <trkpt lat="33.78387" lon="77.59037">
        <ele>4952</ele>
        <time>2015-09-04T08:20:25Z</time>
      </trkpt>
      <trkpt lat="33.78388" lon="77.59032">
        <ele>4953</ele>
        <time>2015-09-04T08:20:37Z</time>
      </trkpt>
      <trkpt lat="33.78391" lon="77.59028">
        <ele>4954</ele>
        <time>2015-09-04T08:20:52Z</time>
      </trkpt>
      <trkpt lat="33.7839" lon="77.59023">
        <ele>4954.8</ele>
        <time>2015-09-04T08:21:01Z</time>
      </trkpt>
      <trkpt lat="33.78389" lon="77.59021">
        <ele>4955</ele>
        <time>2015-09-04T08:21:04Z</time>
      </trkpt>
      <trkpt lat="33.78386" lon="77.59018">
        <ele>4956.2</ele>
        <time>2015-09-04T08:21:13Z</time>
      </trkpt>
      <trkpt lat="33.78384" lon="77.59017">
        <ele>4957.2</ele>
        <time>2015-09-04T08:21:20Z</time>
      </trkpt>
      <trkpt lat="33.7838" lon="77.59018">
        <ele>4958.2</ele>
        <time>2015-09-04T08:21:29Z</time>
      </trkpt>
      <trkpt lat="33.78376" lon="77.59017">
        <ele>4959.4</ele>
        <time>2015-09-04T08:21:42Z</time>
      </trkpt>
      <trkpt lat="33.78373" lon="77.59017">
        <ele>4960.4</ele>
        <time>2015-09-04T08:21:52Z</time>
      </trkpt>
      <trkpt lat="33.78369" lon="77.59015">
        <ele>4961.6</ele>
        <time>2015-09-04T08:22:05Z</time>
      </trkpt>
      <trkpt lat="33.78368" lon="77.59013">
        <ele>4962.8</ele>
        <time>2015-09-04T08:22:09Z</time>
      </trkpt>
      <trkpt lat="33.78364" lon="77.59005">
        <ele>4963.8</ele>
        <time>2015-09-04T08:22:26Z</time>
      </trkpt>
      <trkpt lat="33.7836" lon="77.59006">
        <ele>4964.8</ele>
        <time>2015-09-04T08:22:39Z</time>
      </trkpt>
      <trkpt lat="33.7836" lon="77.59001">
        <ele>4966</ele>
        <time>2015-09-04T08:22:50Z</time>
      </trkpt>
      <trkpt lat="33.78355" lon="77.58998">
        <ele>4967</ele>
        <time>2015-09-04T08:23:01Z</time>
      </trkpt>
      <trkpt lat="33.7835" lon="77.58996">
        <ele>4968</ele>
        <time>2015-09-04T08:23:13Z</time>
      </trkpt>
      <trkpt lat="33.78347" lon="77.58995">
        <ele>4969</ele>
        <time>2015-09-04T08:23:25Z</time>
      </trkpt>
      <trkpt lat="33.7834" lon="77.58995">
        <ele>4970.2</ele>
        <time>2015-09-04T08:23:41Z</time>
      </trkpt>
      <trkpt lat="33.78335" lon="77.58993">
        <ele>4971.2</ele>
        <time>2015-09-04T08:23:54Z</time>
      </trkpt>
      <trkpt lat="33.78335" lon="77.58989">
        <ele>4972.2</ele>
        <time>2015-09-04T08:24:01Z</time>
      </trkpt>
      <trkpt lat="33.78333" lon="77.58983">
        <ele>4973.2</ele>
        <time>2015-09-04T08:24:15Z</time>
      </trkpt>
      <trkpt lat="33.7833" lon="77.5898">
        <ele>4973.8</ele>
        <time>2015-09-04T08:24:24Z</time>
      </trkpt>
      <trkpt lat="33.78328" lon="77.58979">
        <ele>4974.2</ele>
        <time>2015-09-04T08:24:30Z</time>
      </trkpt>
      <trkpt lat="33.78328" lon="77.58975">
        <ele>4975.4</ele>
        <time>2015-09-04T08:24:42Z</time>
      </trkpt>
      <trkpt lat="33.78323" lon="77.58972">
        <ele>4976.6</ele>
        <time>2015-09-04T08:24:55Z</time>
      </trkpt>
      <trkpt lat="33.78317" lon="77.58971">
        <ele>4977.6</ele>
        <time>2015-09-04T08:25:08Z</time>
      </trkpt>
      <trkpt lat="33.78317" lon="77.58966">
        <ele>4978.8</ele>
        <time>2015-09-04T08:25:16Z</time>
      </trkpt>
      <trkpt lat="33.78315" lon="77.58959">
        <ele>4979.8</ele>
        <time>2015-09-04T08:25:28Z</time>
      </trkpt>
      <trkpt lat="33.78307" lon="77.58958">
        <ele>4980.8</ele>
        <time>2015-09-04T08:25:51Z</time>
      </trkpt>
      <trkpt lat="33.78306" lon="77.58952">
        <ele>4981.8</ele>
        <time>2015-09-04T08:26:05Z</time>
      </trkpt>
      <trkpt lat="33.78305" lon="77.5895">
        <ele>4982.8</ele>
        <time>2015-09-04T08:26:20Z</time>
      </trkpt>
      <trkpt lat="33.783" lon="77.5895">
        <ele>4984</ele>
        <time>2015-09-04T08:26:34Z</time>
      </trkpt>
      <trkpt lat="33.78291" lon="77.58946">
        <ele>4985</ele>
        <time>2015-09-04T08:27:01Z</time>
      </trkpt>
      <trkpt lat="33.78287" lon="77.58948">
        <ele>4985.4</ele>
        <time>2015-09-04T08:27:06Z</time>
      </trkpt>
      <trkpt lat="33.78283" lon="77.58948">
        <ele>4986</ele>
        <time>2015-09-04T08:27:14Z</time>
      </trkpt>
      <trkpt lat="33.7828" lon="77.58943">
        <ele>4987.2</ele>
        <time>2015-09-04T08:27:24Z</time>
      </trkpt>
      <trkpt lat="33.78278" lon="77.58941">
        <ele>4988.2</ele>
        <time>2015-09-04T08:27:31Z</time>
      </trkpt>
      <trkpt lat="33.78273" lon="77.58943">
        <ele>4989.2</ele>
        <time>2015-09-04T08:27:45Z</time>
      </trkpt>
      <trkpt lat="33.78266" lon="77.58938">
        <ele>4990.4</ele>
        <time>2015-09-04T08:28:03Z</time>
      </trkpt>
      <trkpt lat="33.78265" lon="77.58935">
        <ele>4991.4</ele>
        <time>2015-09-04T08:28:11Z</time>
      </trkpt>
      <trkpt lat="33.78261" lon="77.58932">
        <ele>4992.4</ele>
        <time>2015-09-04T08:28:22Z</time>
      </trkpt>
      <trkpt lat="33.7826" lon="77.58922">
        <ele>4993.4</ele>
        <time>2015-09-04T08:28:33Z</time>
      </trkpt>
      <trkpt lat="33.78258" lon="77.58917">
        <ele>4994.6</ele>
        <time>2015-09-04T08:28:43Z</time>
      </trkpt>
      <trkpt lat="33.78254" lon="77.58917">
        <ele>4995.6</ele>
        <time>2015-09-04T08:28:54Z</time>
      </trkpt>
      <trkpt lat="33.78252" lon="77.58912">
        <ele>4996.6</ele>
        <time>2015-09-04T08:29:04Z</time>
      </trkpt>
      <trkpt lat="33.78245" lon="77.58915">
        <ele>4997.8</ele>
        <time>2015-09-04T08:29:15Z</time>
      </trkpt>
      <trkpt lat="33.78243" lon="77.58909">
        <ele>4998.8</ele>
        <time>2015-09-04T08:29:26Z</time>
      </trkpt>
      <trkpt lat="33.7824" lon="77.58907">
        <ele>4999.8</ele>
        <time>2015-09-04T08:29:37Z</time>
      </trkpt>
      <trkpt lat="33.78237" lon="77.58903">
        <ele>5000.8</ele>
        <time>2015-09-04T08:29:46Z</time>
      </trkpt>
      <trkpt lat="33.78236" lon="77.58897">
        <ele>5002</ele>
        <time>2015-09-04T08:29:57Z</time>
      </trkpt>
      <trkpt lat="33.78231" lon="77.58896">
        <ele>5003</ele>
        <time>2015-09-04T08:30:08Z</time>
      </trkpt>
      <trkpt lat="33.78227" lon="77.5889">
        <ele>5004</ele>
        <time>2015-09-04T08:30:25Z</time>
      </trkpt>
      <trkpt lat="33.78223" lon="77.58891">
        <ele>5005.2</ele>
        <time>2015-09-04T08:30:37Z</time>
      </trkpt>
      <trkpt lat="33.78219" lon="77.58892">
        <ele>5006.2</ele>
        <time>2015-09-04T08:30:47Z</time>
      </trkpt>
      <trkpt lat="33.78218" lon="77.58887">
        <ele>5007.4</ele>
        <time>2015-09-04T08:30:58Z</time>
      </trkpt>
      <trkpt lat="33.78216" lon="77.58883">
        <ele>5007.8</ele>
        <time>2015-09-04T08:31:04Z</time>
      </trkpt>
      <trkpt lat="33.78216" lon="77.58875">
        <ele>5008.4</ele>
        <time>2015-09-04T08:31:13Z</time>
      </trkpt>
      <trkpt lat="33.78213" lon="77.58869">
        <ele>5009.6</ele>
        <time>2015-09-04T08:31:26Z</time>
      </trkpt>
      <trkpt lat="33.78211" lon="77.58866">
        <ele>5010.6</ele>
        <time>2015-09-04T08:31:37Z</time>
      </trkpt>
      <trkpt lat="33.78209" lon="77.5886">
        <ele>5012</ele>
        <time>2015-09-04T08:31:47Z</time>
      </trkpt>
      <trkpt lat="33.78214" lon="77.58859">
        <ele>5012.2</ele>
        <time>2015-09-04T08:32:22Z</time>
      </trkpt>
      <trkpt lat="33.78212" lon="77.5886">
        <ele>5012.2</ele>
        <time>2015-09-04T08:32:23Z</time>
      </trkpt>
      <trkpt lat="33.78212" lon="77.5886">
        <ele>5012.2</ele>
        <time>2015-09-04T08:32:24Z</time>
      </trkpt>
      <trkpt lat="33.7821" lon="77.58858">
        <ele>5012.8</ele>
        <time>2015-09-04T08:32:27Z</time>
      </trkpt>
      <trkpt lat="33.7821" lon="77.58857">
        <ele>5013</ele>
        <time>2015-09-04T08:32:28Z</time>
      </trkpt>
      <trkpt lat="33.78208" lon="77.58851">
        <ele>5013.4</ele>
        <time>2015-09-04T08:32:31Z</time>
      </trkpt>
      <trkpt lat="33.78206" lon="77.58849">
        <ele>5014</ele>
        <time>2015-09-04T08:33:46Z</time>
      </trkpt>
      <trkpt lat="33.78205" lon="77.58847">
        <ele>5014.4</ele>
        <time>2015-09-04T08:33:55Z</time>
      </trkpt>
      <trkpt lat="33.78199" lon="77.5884">
        <ele>5015</ele>
        <time>2015-09-04T08:34:09Z</time>
      </trkpt>
      <trkpt lat="33.78197" lon="77.58836">
        <ele>5016.2</ele>
        <time>2015-09-04T08:34:21Z</time>
      </trkpt>
      <trkpt lat="33.78198" lon="77.58833">
        <ele>5017.4</ele>
        <time>2015-09-04T08:34:34Z</time>
      </trkpt>
      <trkpt lat="33.78198" lon="77.58823">
        <ele>5018.4</ele>
        <time>2015-09-04T08:34:52Z</time>
      </trkpt>
      <trkpt lat="33.78192" lon="77.5882">
        <ele>5018.8</ele>
        <time>2015-09-04T08:34:59Z</time>
      </trkpt>
      <trkpt lat="33.78188" lon="77.58824">
        <ele>5019</ele>
        <time>2015-09-04T08:35:03Z</time>
      </trkpt>
      <trkpt lat="33.78183" lon="77.58821">
        <ele>5019.6</ele>
        <time>2015-09-04T08:35:20Z</time>
      </trkpt>
      <trkpt lat="33.7818" lon="77.58811">
        <ele>5020.6</ele>
        <time>2015-09-04T08:35:43Z</time>
      </trkpt>
      <trkpt lat="33.78176" lon="77.58806">
        <ele>5021.6</ele>
        <time>2015-09-04T08:35:54Z</time>
      </trkpt>
      <trkpt lat="33.7817" lon="77.58795">
        <ele>5022.6</ele>
        <time>2015-09-04T08:36:09Z</time>
      </trkpt>
      <trkpt lat="33.78168" lon="77.58792">
        <ele>5023.8</ele>
        <time>2015-09-04T08:36:18Z</time>
      </trkpt>
      <trkpt lat="33.78167" lon="77.58787">
        <ele>5024.8</ele>
        <time>2015-09-04T08:36:32Z</time>
      </trkpt>
      <trkpt lat="33.7816" lon="77.58787">
        <ele>5025.8</ele>
        <time>2015-09-04T08:36:47Z</time>
      </trkpt>
      <trkpt lat="33.78159" lon="77.58781">
        <ele>5026.8</ele>
        <time>2015-09-04T08:36:54Z</time>
      </trkpt>
      <trkpt lat="33.78156" lon="77.58776">
        <ele>5028</ele>
        <time>2015-09-04T08:37:05Z</time>
      </trkpt>
      <trkpt lat="33.78151" lon="77.58768">
        <ele>5029</ele>
        <time>2015-09-04T08:37:23Z</time>
      </trkpt>
      <trkpt lat="33.78154" lon="77.58773">
        <ele>5029.8</ele>
        <time>2015-09-04T08:37:41Z</time>
      </trkpt>
      <trkpt lat="33.78154" lon="77.58773">
        <ele>5030</ele>
        <time>2015-09-04T08:37:44Z</time>
      </trkpt>
      <trkpt lat="33.78155" lon="77.58764">
        <ele>5031</ele>
        <time>2015-09-04T08:37:57Z</time>
      </trkpt>
      <trkpt lat="33.78155" lon="77.58754">
        <ele>5031.8</ele>
        <time>2015-09-04T08:38:09Z</time>
      </trkpt>
      <trkpt lat="33.78154" lon="77.5875">
        <ele>5032</ele>
        <time>2015-09-04T08:38:17Z</time>
      </trkpt>
      <trkpt lat="33.78151" lon="77.5874">
        <ele>5033</ele>
        <time>2015-09-04T08:38:44Z</time>
      </trkpt>
      <trkpt lat="33.78148" lon="77.58731">
        <ele>5034</ele>
        <time>2015-09-04T08:38:58Z</time>
      </trkpt>
      <trkpt lat="33.78146" lon="77.58722">
        <ele>5035.2</ele>
        <time>2015-09-04T08:39:13Z</time>
      </trkpt>
      <trkpt lat="33.78142" lon="77.58719">
        <ele>5036.2</ele>
        <time>2015-09-04T08:39:28Z</time>
      </trkpt>
      <trkpt lat="33.78139" lon="77.58712">
        <ele>5037.2</ele>
        <time>2015-09-04T08:39:45Z</time>
      </trkpt>
      <trkpt lat="33.78136" lon="77.58706">
        <ele>5038.4</ele>
        <time>2015-09-04T08:39:58Z</time>
      </trkpt>
      <trkpt lat="33.78136" lon="77.58705">
        <ele>5038.4</ele>
        <time>2015-09-04T08:40:01Z</time>
      </trkpt>
      <trkpt lat="33.78136" lon="77.58703">
        <ele>5039.4</ele>
        <time>2015-09-04T08:40:08Z</time>
      </trkpt>
      <trkpt lat="33.78127" lon="77.58697">
        <ele>5040.4</ele>
        <time>2015-09-04T08:40:29Z</time>
      </trkpt>
      <trkpt lat="33.78124" lon="77.5869">
        <ele>5041</ele>
        <time>2015-09-04T08:40:36Z</time>
      </trkpt>
      <trkpt lat="33.78122" lon="77.58684">
        <ele>5041.4</ele>
        <time>2015-09-04T08:40:44Z</time>
      </trkpt>
      <trkpt lat="33.78117" lon="77.58681">
        <ele>5042.6</ele>
        <time>2015-09-04T08:40:58Z</time>
      </trkpt>
      <trkpt lat="33.78117" lon="77.58679">
        <ele>5043.6</ele>
        <time>2015-09-04T08:41:06Z</time>
      </trkpt>
      <trkpt lat="33.78112" lon="77.58673">
        <ele>5044.6</ele>
        <time>2015-09-04T08:41:18Z</time>
      </trkpt>
      <trkpt lat="33.78107" lon="77.58666">
        <ele>5045.6</ele>
        <time>2015-09-04T08:41:35Z</time>
      </trkpt>
      <trkpt lat="33.78102" lon="77.58662">
        <ele>5046.6</ele>
        <time>2015-09-04T08:41:51Z</time>
      </trkpt>
      <trkpt lat="33.78099" lon="77.58661">
        <ele>5047.4</ele>
        <time>2015-09-04T08:42:01Z</time>
      </trkpt>
      <trkpt lat="33.78098" lon="77.5866">
        <ele>5047.8</ele>
        <time>2015-09-04T08:42:04Z</time>
      </trkpt>
      <trkpt lat="33.78096" lon="77.58657">
        <ele>5048.8</ele>
        <time>2015-09-04T08:42:17Z</time>
      </trkpt>
      <trkpt lat="33.78089" lon="77.5865">
        <ele>5049.8</ele>
        <time>2015-09-04T08:42:35Z</time>
      </trkpt>
      <trkpt lat="33.78086" lon="77.58647">
        <ele>5050.8</ele>
        <time>2015-09-04T08:42:48Z</time>
      </trkpt>
      <trkpt lat="33.78078" lon="77.58646">
        <ele>5052</ele>
        <time>2015-09-04T08:43:06Z</time>
      </trkpt>
      <trkpt lat="33.78069" lon="77.58648">
        <ele>5053</ele>
        <time>2015-09-04T08:43:25Z</time>
      </trkpt>
      <trkpt lat="33.78067" lon="77.58649">
        <ele>5053</ele>
        <time>2015-09-04T08:45:16Z</time>
      </trkpt>
      <trkpt lat="33.78068" lon="77.58646">
        <ele>5054</ele>
        <time>2015-09-04T08:45:33Z</time>
      </trkpt>
      <trkpt lat="33.78074" lon="77.5865">
        <ele>5053</ele>
        <time>2015-09-04T08:46:01Z</time>
      </trkpt>
      <trkpt lat="33.78072" lon="77.58652">
        <ele>5053</ele>
        <time>2015-09-04T08:46:42Z</time>
      </trkpt>
      <trkpt lat="33.78071" lon="77.58651">
        <ele>5054</ele>
        <time>2015-09-04T08:46:53Z</time>
      </trkpt>
      <trkpt lat="33.78071" lon="77.58654">
        <ele>5053</ele>
        <time>2015-09-04T08:47:10Z</time>
      </trkpt>
      <trkpt lat="33.78072" lon="77.58651">
        <ele>5053.8</ele>
        <time>2015-09-04T08:48:40Z</time>
      </trkpt>
      <trkpt lat="33.7807" lon="77.58652">
        <ele>5054</ele>
        <time>2015-09-04T08:48:55Z</time>
      </trkpt>
      <trkpt lat="33.78068" lon="77.58653">
        <ele>5054.2</ele>
        <time>2015-09-04T08:50:18Z</time>
      </trkpt>
      <trkpt lat="33.78065" lon="77.58644">
        <ele>5055</ele>
        <time>2015-09-04T08:50:37Z</time>
      </trkpt>
      <trkpt lat="33.78054" lon="77.58643">
        <ele>5056</ele>
        <time>2015-09-04T08:50:53Z</time>
      </trkpt>
      <trkpt lat="33.7804" lon="77.58642">
        <ele>5057.2</ele>
        <time>2015-09-04T08:51:13Z</time>
      </trkpt>
      <trkpt lat="33.78032" lon="77.58636">
        <ele>5058.2</ele>
        <time>2015-09-04T08:51:27Z</time>
      </trkpt>
      <trkpt lat="33.78031" lon="77.58629">
        <ele>5059.2</ele>
        <time>2015-09-04T08:51:43Z</time>
      </trkpt>
      <trkpt lat="33.78023" lon="77.58624">
        <ele>5060.2</ele>
        <time>2015-09-04T08:52:00Z</time>
      </trkpt>
      <trkpt lat="33.78012" lon="77.58623">
        <ele>5061.4</ele>
        <time>2015-09-04T08:52:16Z</time>
      </trkpt>
      <trkpt lat="33.78008" lon="77.58619">
        <ele>5062.4</ele>
        <time>2015-09-04T08:52:27Z</time>
      </trkpt>
      <trkpt lat="33.78002" lon="77.58611">
        <ele>5063.4</ele>
        <time>2015-09-04T08:52:40Z</time>
      </trkpt>
      <trkpt lat="33.77997" lon="77.58609">
        <ele>5064.6</ele>
        <time>2015-09-04T08:52:55Z</time>
      </trkpt>
      <trkpt lat="33.7799" lon="77.58603">
        <ele>5065.6</ele>
        <time>2015-09-04T08:53:11Z</time>
      </trkpt>
      <trkpt lat="33.77991" lon="77.58592">
        <ele>5066.6</ele>
        <time>2015-09-04T08:53:26Z</time>
      </trkpt>
      <trkpt lat="33.77981" lon="77.58586">
        <ele>5067.6</ele>
        <time>2015-09-04T08:53:43Z</time>
      </trkpt>
      <trkpt lat="33.77968" lon="77.58586">
        <ele>5068.8</ele>
        <time>2015-09-04T08:54:03Z</time>
      </trkpt>
      <trkpt lat="33.7796" lon="77.58583">
        <ele>5069.8</ele>
        <time>2015-09-04T08:54:19Z</time>
      </trkpt>
      <trkpt lat="33.77953" lon="77.58577">
        <ele>5070.8</ele>
        <time>2015-09-04T08:54:37Z</time>
      </trkpt>
      <trkpt lat="33.77949" lon="77.58572">
        <ele>5071.2</ele>
        <time>2015-09-04T08:54:43Z</time>
      </trkpt>
      <trkpt lat="33.77945" lon="77.5857">
        <ele>5071.8</ele>
        <time>2015-09-04T08:54:53Z</time>
      </trkpt>
      <trkpt lat="33.77938" lon="77.58568">
        <ele>5073</ele>
        <time>2015-09-04T08:55:05Z</time>
      </trkpt>
      <trkpt lat="33.77928" lon="77.58565">
        <ele>5074</ele>
        <time>2015-09-04T08:55:24Z</time>
      </trkpt>
      <trkpt lat="33.77926" lon="77.58553">
        <ele>5075</ele>
        <time>2015-09-04T08:55:43Z</time>
      </trkpt>
      <trkpt lat="33.77912" lon="77.58556">
        <ele>5076</ele>
        <time>2015-09-04T08:56:01Z</time>
      </trkpt>
      <trkpt lat="33.7791" lon="77.58557">
        <ele>5076.2</ele>
        <time>2015-09-04T08:56:03Z</time>
      </trkpt>
      <trkpt lat="33.77904" lon="77.58551">
        <ele>5077</ele>
        <time>2015-09-04T08:56:16Z</time>
      </trkpt>
      <trkpt lat="33.77898" lon="77.58547">
        <ele>5078.2</ele>
        <time>2015-09-04T08:56:31Z</time>
      </trkpt>
      <trkpt lat="33.77892" lon="77.58539">
        <ele>5079.2</ele>
        <time>2015-09-04T08:56:50Z</time>
      </trkpt>
      <trkpt lat="33.77881" lon="77.58533">
        <ele>5080.2</ele>
        <time>2015-09-04T08:57:09Z</time>
      </trkpt>
      <trkpt lat="33.77873" lon="77.58532">
        <ele>5081.2</ele>
        <time>2015-09-04T08:57:29Z</time>
      </trkpt>
      <trkpt lat="33.77868" lon="77.58531">
        <ele>5082.2</ele>
        <time>2015-09-04T08:57:44Z</time>
      </trkpt>
      <trkpt lat="33.77864" lon="77.58531">
        <ele>5082.6</ele>
        <time>2015-09-04T08:57:50Z</time>
      </trkpt>
      <trkpt lat="33.77857" lon="77.58532">
        <ele>5083.2</ele>
        <time>2015-09-04T08:57:59Z</time>
      </trkpt>
      <trkpt lat="33.77852" lon="77.58527">
        <ele>5084</ele>
        <time>2015-09-04T08:58:10Z</time>
      </trkpt>
      <trkpt lat="33.77849" lon="77.58524">
        <ele>5084.4</ele>
        <time>2015-09-04T08:58:16Z</time>
      </trkpt>
      <trkpt lat="33.77844" lon="77.58519">
        <ele>5085.4</ele>
        <time>2015-09-04T08:58:34Z</time>
      </trkpt>
      <trkpt lat="33.77835" lon="77.58516">
        <ele>5086.4</ele>
        <time>2015-09-04T08:58:55Z</time>
      </trkpt>
      <trkpt lat="33.77832" lon="77.58512">
        <ele>5087.4</ele>
        <time>2015-09-04T08:59:03Z</time>
      </trkpt>
      <trkpt lat="33.77823" lon="77.58512">
        <ele>5088.4</ele>
        <time>2015-09-04T08:59:21Z</time>
      </trkpt>
      <trkpt lat="33.77813" lon="77.58514">
        <ele>5089.6</ele>
        <time>2015-09-04T08:59:35Z</time>
      </trkpt>
      <trkpt lat="33.77804" lon="77.58513">
        <ele>5090.6</ele>
        <time>2015-09-04T08:59:54Z</time>
      </trkpt>
      <trkpt lat="33.77798" lon="77.5851">
        <ele>5091.6</ele>
        <time>2015-09-04T09:00:09Z</time>
      </trkpt>
      <trkpt lat="33.77788" lon="77.58519">
        <ele>5092.4</ele>
        <time>2015-09-04T09:00:36Z</time>
      </trkpt>
      <trkpt lat="33.77788" lon="77.58518">
        <ele>5092.4</ele>
        <time>2015-09-04T09:00:48Z</time>
      </trkpt>
      <trkpt lat="33.77784" lon="77.58517">
        <ele>5092.6</ele>
        <time>2015-09-04T09:01:01Z</time>
      </trkpt>
      <trkpt lat="33.77783" lon="77.58518">
        <ele>5092.6</ele>
        <time>2015-09-04T09:01:02Z</time>
      </trkpt>
      <trkpt lat="33.77783" lon="77.58516">
        <ele>5093.2</ele>
        <time>2015-09-04T09:01:15Z</time>
      </trkpt>
      <trkpt lat="33.77782" lon="77.58508">
        <ele>5093.6</ele>
        <time>2015-09-04T09:01:28Z</time>
      </trkpt>
      <trkpt lat="33.77782" lon="77.58508">
        <ele>5093.6</ele>
        <time>2015-09-04T09:01:29Z</time>
      </trkpt>
      <trkpt lat="33.77771" lon="77.5851">
        <ele>5094.8</ele>
        <time>2015-09-04T09:01:45Z</time>
      </trkpt>
      <trkpt lat="33.77761" lon="77.58497">
        <ele>5095.8</ele>
        <time>2015-09-04T09:02:03Z</time>
      </trkpt>
      <trkpt lat="33.7776" lon="77.58495">
        <ele>5096</ele>
        <time>2015-09-04T09:02:05Z</time>
      </trkpt>
      <trkpt lat="33.77757" lon="77.58494">
        <ele>5097</ele>
        <time>2015-09-04T09:02:13Z</time>
      </trkpt>
      <trkpt lat="33.7775" lon="77.58494">
        <ele>5098</ele>
        <time>2015-09-04T09:02:26Z</time>
      </trkpt>
      <trkpt lat="33.77743" lon="77.585">
        <ele>5099</ele>
        <time>2015-09-04T09:02:36Z</time>
      </trkpt>
      <trkpt lat="33.77739" lon="77.58488">
        <ele>5100.2</ele>
        <time>2015-09-04T09:02:55Z</time>
      </trkpt>
      <trkpt lat="33.77737" lon="77.58484">
        <ele>5101.2</ele>
        <time>2015-09-04T09:03:07Z</time>
      </trkpt>
      <trkpt lat="33.77725" lon="77.58479">
        <ele>5102.2</ele>
        <time>2015-09-04T09:03:27Z</time>
      </trkpt>
      <trkpt lat="33.77722" lon="77.58473">
        <ele>5103.4</ele>
        <time>2015-09-04T09:03:39Z</time>
      </trkpt>
      <trkpt lat="33.77715" lon="77.58462">
        <ele>5104.4</ele>
        <time>2015-09-04T09:04:00Z</time>
      </trkpt>
      <trkpt lat="33.77708" lon="77.5846">
        <ele>5105.4</ele>
        <time>2015-09-04T09:04:14Z</time>
      </trkpt>
      <trkpt lat="33.77704" lon="77.58456">
        <ele>5106.4</ele>
        <time>2015-09-04T09:04:26Z</time>
      </trkpt>
      <trkpt lat="33.77701" lon="77.5845">
        <ele>5107.4</ele>
        <time>2015-09-04T09:04:39Z</time>
      </trkpt>
      <trkpt lat="33.77695" lon="77.58446">
        <ele>5108.6</ele>
        <time>2015-09-04T09:04:52Z</time>
      </trkpt>
      <trkpt lat="33.77687" lon="77.5844">
        <ele>5109.6</ele>
        <time>2015-09-04T09:05:09Z</time>
      </trkpt>
      <trkpt lat="33.77678" lon="77.58441">
        <ele>5110.6</ele>
        <time>2015-09-04T09:05:23Z</time>
      </trkpt>
      <trkpt lat="33.77674" lon="77.58435">
        <ele>5111.6</ele>
        <time>2015-09-04T09:05:34Z</time>
      </trkpt>
      <trkpt lat="33.77668" lon="77.58432">
        <ele>5112.8</ele>
        <time>2015-09-04T09:05:47Z</time>
      </trkpt>
      <trkpt lat="33.77663" lon="77.58428">
        <ele>5113.8</ele>
        <time>2015-09-04T09:06:02Z</time>
      </trkpt>
      <trkpt lat="33.77657" lon="77.58424">
        <ele>5114.8</ele>
        <time>2015-09-04T09:06:14Z</time>
      </trkpt>
      <trkpt lat="33.77649" lon="77.58415">
        <ele>5115.8</ele>
        <time>2015-09-04T09:06:31Z</time>
      </trkpt>
      <trkpt lat="33.77646" lon="77.58408">
        <ele>5117</ele>
        <time>2015-09-04T09:06:47Z</time>
      </trkpt>
      <trkpt lat="33.77639" lon="77.58405">
        <ele>5118</ele>
        <time>2015-09-04T09:07:03Z</time>
      </trkpt>
      <trkpt lat="33.77627" lon="77.58402">
        <ele>5119</ele>
        <time>2015-09-04T09:07:20Z</time>
      </trkpt>
      <trkpt lat="33.77623" lon="77.58394">
        <ele>5120</ele>
        <time>2015-09-04T09:07:34Z</time>
      </trkpt>
      <trkpt lat="33.77621" lon="77.58388">
        <ele>5121</ele>
        <time>2015-09-04T09:07:48Z</time>
      </trkpt>
      <trkpt lat="33.77615" lon="77.58383">
        <ele>5122.2</ele>
        <time>2015-09-04T09:08:03Z</time>
      </trkpt>
      <trkpt lat="33.77609" lon="77.58381">
        <ele>5123.2</ele>
        <time>2015-09-04T09:08:18Z</time>
      </trkpt>
      <trkpt lat="33.77601" lon="77.58376">
        <ele>5124.2</ele>
        <time>2015-09-04T09:08:33Z</time>
      </trkpt>
      <trkpt lat="33.77597" lon="77.58368">
        <ele>5125.2</ele>
        <time>2015-09-04T09:08:51Z</time>
      </trkpt>
      <trkpt lat="33.77587" lon="77.58366">
        <ele>5126.2</ele>
        <time>2015-09-04T09:09:07Z</time>
      </trkpt>
      <trkpt lat="33.77581" lon="77.58361">
        <ele>5127.4</ele>
        <time>2015-09-04T09:09:23Z</time>
      </trkpt>
      <trkpt lat="33.77577" lon="77.58357">
        <ele>5128.4</ele>
        <time>2015-09-04T09:09:36Z</time>
      </trkpt>
      <trkpt lat="33.77571" lon="77.58349">
        <ele>5129.4</ele>
        <time>2015-09-04T09:09:52Z</time>
      </trkpt>
      <trkpt lat="33.77566" lon="77.58347">
        <ele>5130.6</ele>
        <time>2015-09-04T09:10:07Z</time>
      </trkpt>
      <trkpt lat="33.77559" lon="77.58338">
        <ele>5131.6</ele>
        <time>2015-09-04T09:10:24Z</time>
      </trkpt>
      <trkpt lat="33.77553" lon="77.58337">
        <ele>5132.6</ele>
        <time>2015-09-04T09:10:36Z</time>
      </trkpt>
      <trkpt lat="33.77543" lon="77.58336">
        <ele>5133.6</ele>
        <time>2015-09-04T09:10:55Z</time>
      </trkpt>
      <trkpt lat="33.77537" lon="77.58332">
        <ele>5134.6</ele>
        <time>2015-09-04T09:11:10Z</time>
      </trkpt>
      <trkpt lat="33.77532" lon="77.58329">
        <ele>5135.6</ele>
        <time>2015-09-04T09:11:23Z</time>
      </trkpt>
      <trkpt lat="33.77527" lon="77.58325">
        <ele>5136.8</ele>
        <time>2015-09-04T09:11:39Z</time>
      </trkpt>
      <trkpt lat="33.7752" lon="77.58323">
        <ele>5137.8</ele>
        <time>2015-09-04T09:11:54Z</time>
      </trkpt>
      <trkpt lat="33.77515" lon="77.58323">
        <ele>5139</ele>
        <time>2015-09-04T09:12:08Z</time>
      </trkpt>
      <trkpt lat="33.77513" lon="77.58318">
        <ele>5139.6</ele>
        <time>2015-09-04T09:12:18Z</time>
      </trkpt>
      <trkpt lat="33.77511" lon="77.58316">
        <ele>5140</ele>
        <time>2015-09-04T09:12:23Z</time>
      </trkpt>
      <trkpt lat="33.77502" lon="77.58313">
        <ele>5141</ele>
        <time>2015-09-04T09:12:42Z</time>
      </trkpt>
      <trkpt lat="33.775" lon="77.58316">
        <ele>5141.2</ele>
        <time>2015-09-04T09:12:44Z</time>
      </trkpt>
      <trkpt lat="33.77493" lon="77.58312">
        <ele>5142</ele>
        <time>2015-09-04T09:12:59Z</time>
      </trkpt>
      <trkpt lat="33.7749" lon="77.58307">
        <ele>5143</ele>
        <time>2015-09-04T09:13:12Z</time>
      </trkpt>
      <trkpt lat="33.77492" lon="77.58297">
        <ele>5144.2</ele>
        <time>2015-09-04T09:13:26Z</time>
      </trkpt>
      <trkpt lat="33.7749" lon="77.58299">
        <ele>5144.4</ele>
        <time>2015-09-04T09:13:32Z</time>
      </trkpt>
      <trkpt lat="33.77481" lon="77.58301">
        <ele>5145</ele>
        <time>2015-09-04T09:14:11Z</time>
      </trkpt>
      <trkpt lat="33.7748" lon="77.58301">
        <ele>5145.2</ele>
        <time>2015-09-04T09:14:13Z</time>
      </trkpt>
      <trkpt lat="33.77471" lon="77.583">
        <ele>5146.2</ele>
        <time>2015-09-04T09:14:27Z</time>
      </trkpt>
      <trkpt lat="33.77469" lon="77.583">
        <ele>5146.4</ele>
        <time>2015-09-04T09:14:30Z</time>
      </trkpt>
      <trkpt lat="33.77466" lon="77.58295">
        <ele>5147.4</ele>
        <time>2015-09-04T09:14:42Z</time>
      </trkpt>
      <trkpt lat="33.7746" lon="77.58292">
        <ele>5148.4</ele>
        <time>2015-09-04T09:14:56Z</time>
      </trkpt>
      <trkpt lat="33.77455" lon="77.58291">
        <ele>5149.6</ele>
        <time>2015-09-04T09:15:03Z</time>
      </trkpt>
      <trkpt lat="33.77448" lon="77.58288">
        <ele>5150.6</ele>
        <time>2015-09-04T09:15:21Z</time>
      </trkpt>
      <trkpt lat="33.77445" lon="77.5828">
        <ele>5151.6</ele>
        <time>2015-09-04T09:15:38Z</time>
      </trkpt>
      <trkpt lat="33.77443" lon="77.58272">
        <ele>5152.6</ele>
        <time>2015-09-04T09:15:50Z</time>
      </trkpt>
      <trkpt lat="33.77438" lon="77.58268">
        <ele>5153.8</ele>
        <time>2015-09-04T09:16:02Z</time>
      </trkpt>
      <trkpt lat="33.77433" lon="77.58264">
        <ele>5154.8</ele>
        <time>2015-09-04T09:16:17Z</time>
      </trkpt>
      <trkpt lat="33.77431" lon="77.5826">
        <ele>5155.8</ele>
        <time>2015-09-04T09:16:30Z</time>
      </trkpt>
      <trkpt lat="33.77424" lon="77.5826">
        <ele>5157</ele>
        <time>2015-09-04T09:16:52Z</time>
      </trkpt>
      <trkpt lat="33.77423" lon="77.58263">
        <ele>5156.2</ele>
        <time>2015-09-04T09:17:05Z</time>
      </trkpt>
      <trkpt lat="33.77427" lon="77.58257">
        <ele>5157</ele>
        <time>2015-09-04T09:17:57Z</time>
      </trkpt>
      <trkpt lat="33.77422" lon="77.58252">
        <ele>5158</ele>
        <time>2015-09-04T09:18:11Z</time>
      </trkpt>
      <trkpt lat="33.77419" lon="77.58251">
        <ele>5158.2</ele>
        <time>2015-09-04T09:18:15Z</time>
      </trkpt>
      <trkpt lat="33.77413" lon="77.5825">
        <ele>5159</ele>
        <time>2015-09-04T09:18:26Z</time>
      </trkpt>
      <trkpt lat="33.7741" lon="77.58249">
        <ele>5160</ele>
        <time>2015-09-04T09:18:33Z</time>
      </trkpt>
      <trkpt lat="33.77406" lon="77.58246">
        <ele>5161</ele>
        <time>2015-09-04T09:18:45Z</time>
      </trkpt>
      <trkpt lat="33.774" lon="77.58242">
        <ele>5162.2</ele>
        <time>2015-09-04T09:18:59Z</time>
      </trkpt>
      <trkpt lat="33.77398" lon="77.58237">
        <ele>5163.2</ele>
        <time>2015-09-04T09:19:17Z</time>
      </trkpt>
      <trkpt lat="33.77394" lon="77.58232">
        <ele>5164.4</ele>
        <time>2015-09-04T09:19:34Z</time>
      </trkpt>
      <trkpt lat="33.77385" lon="77.58223">
        <ele>5165.4</ele>
        <time>2015-09-04T09:19:55Z</time>
      </trkpt>
      <trkpt lat="33.77377" lon="77.58224">
        <ele>5166.6</ele>
        <time>2015-09-04T09:20:06Z</time>
      </trkpt>
      <trkpt lat="33.77375" lon="77.58225">
        <ele>5167.4</ele>
        <time>2015-09-04T09:20:16Z</time>
      </trkpt>
      <trkpt lat="33.77375" lon="77.58223">
        <ele>5167.8</ele>
        <time>2015-09-04T09:20:21Z</time>
      </trkpt>
      <trkpt lat="33.77373" lon="77.58215">
        <ele>5168.8</ele>
        <time>2015-09-04T09:20:37Z</time>
      </trkpt>
      <trkpt lat="33.77367" lon="77.58214">
        <ele>5169.8</ele>
        <time>2015-09-04T09:20:48Z</time>
      </trkpt>
      <trkpt lat="33.77361" lon="77.58212">
        <ele>5170.8</ele>
        <time>2015-09-04T09:21:02Z</time>
      </trkpt>
      <trkpt lat="33.77356" lon="77.58209">
        <ele>5171.8</ele>
        <time>2015-09-04T09:21:14Z</time>
      </trkpt>
      <trkpt lat="33.77356" lon="77.58208">
        <ele>5172</ele>
        <time>2015-09-04T09:21:15Z</time>
      </trkpt>
      <trkpt lat="33.77355" lon="77.58206">
        <ele>5173</ele>
        <time>2015-09-04T09:21:26Z</time>
      </trkpt>
      <trkpt lat="33.7735" lon="77.58206">
        <ele>5174</ele>
        <time>2015-09-04T09:21:36Z</time>
      </trkpt>
      <trkpt lat="33.77346" lon="77.58198">
        <ele>5175</ele>
        <time>2015-09-04T09:21:56Z</time>
      </trkpt>
      <trkpt lat="33.77342" lon="77.58198">
        <ele>5176</ele>
        <time>2015-09-04T09:22:03Z</time>
      </trkpt>
      <trkpt lat="33.77338" lon="77.58192">
        <ele>5177.2</ele>
        <time>2015-09-04T09:22:19Z</time>
      </trkpt>
      <trkpt lat="33.77332" lon="77.58187">
        <ele>5178.2</ele>
        <time>2015-09-04T09:22:36Z</time>
      </trkpt>
      <trkpt lat="33.77332" lon="77.58178">
        <ele>5179.2</ele>
        <time>2015-09-04T09:22:49Z</time>
      </trkpt>
      <trkpt lat="33.77329" lon="77.58174">
        <ele>5180.4</ele>
        <time>2015-09-04T09:23:00Z</time>
      </trkpt>
      <trkpt lat="33.77325" lon="77.58173">
        <ele>5181.4</ele>
        <time>2015-09-04T09:23:10Z</time>
      </trkpt>
      <trkpt lat="33.77321" lon="77.58168">
        <ele>5182.4</ele>
        <time>2015-09-04T09:23:22Z</time>
      </trkpt>
      <trkpt lat="33.77321" lon="77.58167">
        <ele>5182.4</ele>
        <time>2015-09-04T09:23:23Z</time>
      </trkpt>
      <trkpt lat="33.77317" lon="77.58164">
        <ele>5183.4</ele>
        <time>2015-09-04T09:23:32Z</time>
      </trkpt>
      <trkpt lat="33.77313" lon="77.5816">
        <ele>5184.6</ele>
        <time>2015-09-04T09:23:46Z</time>
      </trkpt>
      <trkpt lat="33.77304" lon="77.5816">
        <ele>5185.6</ele>
        <time>2015-09-04T09:24:02Z</time>
      </trkpt>
      <trkpt lat="33.77303" lon="77.58157">
        <ele>5186.6</ele>
        <time>2015-09-04T09:24:13Z</time>
      </trkpt>
      <trkpt lat="33.77299" lon="77.58152">
        <ele>5187.6</ele>
        <time>2015-09-04T09:24:28Z</time>
      </trkpt>
      <trkpt lat="33.77292" lon="77.5815">
        <ele>5188.6</ele>
        <time>2015-09-04T09:24:41Z</time>
      </trkpt>
      <trkpt lat="33.77287" lon="77.58146">
        <ele>5189.6</ele>
        <time>2015-09-04T09:24:54Z</time>
      </trkpt>
      <trkpt lat="33.77283" lon="77.58143">
        <ele>5190.6</ele>
        <time>2015-09-04T09:25:05Z</time>
      </trkpt>
      <trkpt lat="33.77279" lon="77.58138">
        <ele>5191.8</ele>
        <time>2015-09-04T09:25:20Z</time>
      </trkpt>
      <trkpt lat="33.77278" lon="77.58132">
        <ele>5192.8</ele>
        <time>2015-09-04T09:25:37Z</time>
      </trkpt>
      <trkpt lat="33.77278" lon="77.58123">
        <ele>5193.8</ele>
        <time>2015-09-04T09:25:50Z</time>
      </trkpt>
      <trkpt lat="33.77276" lon="77.58118">
        <ele>5194.8</ele>
        <time>2015-09-04T09:26:03Z</time>
      </trkpt>
      <trkpt lat="33.77277" lon="77.58115">
        <ele>5195.8</ele>
        <time>2015-09-04T09:26:13Z</time>
      </trkpt>
      <trkpt lat="33.77277" lon="77.5811">
        <ele>5197</ele>
        <time>2015-09-04T09:26:24Z</time>
      </trkpt>
      <trkpt lat="33.77275" lon="77.58101">
        <ele>5198</ele>
        <time>2015-09-04T09:26:37Z</time>
      </trkpt>
      <trkpt lat="33.7727" lon="77.58102">
        <ele>5199</ele>
        <time>2015-09-04T09:26:46Z</time>
      </trkpt>
      <trkpt lat="33.7726" lon="77.58101">
        <ele>5200</ele>
        <time>2015-09-04T09:27:03Z</time>
      </trkpt>
      <trkpt lat="33.7726" lon="77.58101">
        <ele>5200.4</ele>
        <time>2015-09-04T09:27:05Z</time>
      </trkpt>
      <trkpt lat="33.77257" lon="77.581">
        <ele>5201.2</ele>
        <time>2015-09-04T09:27:14Z</time>
      </trkpt>
      <trkpt lat="33.77255" lon="77.58093">
        <ele>5202.2</ele>
        <time>2015-09-04T09:27:26Z</time>
      </trkpt>
      <trkpt lat="33.77249" lon="77.5809">
        <ele>5203.2</ele>
        <time>2015-09-04T09:27:41Z</time>
      </trkpt>
      <trkpt lat="33.77251" lon="77.58086">
        <ele>5204.2</ele>
        <time>2015-09-04T09:27:53Z</time>
      </trkpt>
      <trkpt lat="33.77247" lon="77.58084">
        <ele>5205.4</ele>
        <time>2015-09-04T09:28:00Z</time>
      </trkpt>
      <trkpt lat="33.77242" lon="77.58079">
        <ele>5206.4</ele>
        <time>2015-09-04T09:28:12Z</time>
      </trkpt>
      <trkpt lat="33.77231" lon="77.58075">
        <ele>5207.4</ele>
        <time>2015-09-04T09:28:34Z</time>
      </trkpt>
      <trkpt lat="33.77228" lon="77.58071">
        <ele>5208.6</ele>
        <time>2015-09-04T09:28:47Z</time>
      </trkpt>
      <trkpt lat="33.77223" lon="77.58071">
        <ele>5209.6</ele>
        <time>2015-09-04T09:29:00Z</time>
      </trkpt>
      <trkpt lat="33.77217" lon="77.58072">
        <ele>5210.6</ele>
        <time>2015-09-04T09:29:13Z</time>
      </trkpt>
      <trkpt lat="33.7721" lon="77.58074">
        <ele>5211.8</ele>
        <time>2015-09-04T09:29:25Z</time>
      </trkpt>
      <trkpt lat="33.77205" lon="77.58069">
        <ele>5212.8</ele>
        <time>2015-09-04T09:29:44Z</time>
      </trkpt>
      <trkpt lat="33.77191" lon="77.58054">
        <ele>5213.2</ele>
        <time>2015-09-04T09:29:49Z</time>
      </trkpt>
      <trkpt lat="33.77195" lon="77.58065">
        <ele>5213.4</ele>
        <time>2015-09-04T09:29:51Z</time>
      </trkpt>
      <trkpt lat="33.77197" lon="77.58065">
        <ele>5213.6</ele>
        <time>2015-09-04T09:29:54Z</time>
      </trkpt>
      <trkpt lat="33.77197" lon="77.58064">
        <ele>5213.8</ele>
        <time>2015-09-04T09:29:56Z</time>
      </trkpt>
      <trkpt lat="33.77199" lon="77.58064">
        <ele>5215</ele>
        <time>2015-09-04T09:30:05Z</time>
      </trkpt>
      <trkpt lat="33.77196" lon="77.58063">
        <ele>5216</ele>
        <time>2015-09-04T09:30:19Z</time>
      </trkpt>
      <trkpt lat="33.77185" lon="77.58067">
        <ele>5217</ele>
        <time>2015-09-04T09:30:33Z</time>
      </trkpt>
      <trkpt lat="33.77183" lon="77.58067">
        <ele>5217.8</ele>
        <time>2015-09-04T09:30:42Z</time>
      </trkpt>
      <trkpt lat="33.77182" lon="77.58066">
        <ele>5218</ele>
        <time>2015-09-04T09:30:45Z</time>
      </trkpt>
      <trkpt lat="33.77178" lon="77.58064">
        <ele>5219</ele>
        <time>2015-09-04T09:30:57Z</time>
      </trkpt>
      <trkpt lat="33.77177" lon="77.58058">
        <ele>5220</ele>
        <time>2015-09-04T09:31:09Z</time>
      </trkpt>
      <trkpt lat="33.77177" lon="77.58058">
        <ele>5220.2</ele>
        <time>2015-09-04T09:31:10Z</time>
      </trkpt>
      <trkpt lat="33.77178" lon="77.58058">
        <ele>5221.2</ele>
        <time>2015-09-04T09:31:16Z</time>
      </trkpt>
      <trkpt lat="33.77177" lon="77.58059">
        <ele>5222.2</ele>
        <time>2015-09-04T09:31:57Z</time>
      </trkpt>
      <trkpt lat="33.77167" lon="77.58054">
        <ele>5223.2</ele>
        <time>2015-09-04T09:33:38Z</time>
      </trkpt>
      <trkpt lat="33.77162" lon="77.58056">
        <ele>5224.4</ele>
        <time>2015-09-04T09:33:49Z</time>
      </trkpt>
      <trkpt lat="33.77155" lon="77.58057">
        <ele>5225.4</ele>
        <time>2015-09-04T09:34:06Z</time>
      </trkpt>
      <trkpt lat="33.77149" lon="77.58058">
        <ele>5226.4</ele>
        <time>2015-09-04T09:34:16Z</time>
      </trkpt>
      <trkpt lat="33.77146" lon="77.58058">
        <ele>5227.6</ele>
        <time>2015-09-04T09:34:27Z</time>
      </trkpt>
      <trkpt lat="33.77142" lon="77.58058">
        <ele>5228.6</ele>
        <time>2015-09-04T09:34:36Z</time>
      </trkpt>
      <trkpt lat="33.77138" lon="77.58059">
        <ele>5229.6</ele>
        <time>2015-09-04T09:34:49Z</time>
      </trkpt>
      <trkpt lat="33.77133" lon="77.58058">
        <ele>5230.6</ele>
        <time>2015-09-04T09:34:59Z</time>
      </trkpt>
      <trkpt lat="33.77132" lon="77.58059">
        <ele>5231.6</ele>
        <time>2015-09-04T09:35:13Z</time>
      </trkpt>
      <trkpt lat="33.7713" lon="77.58059">
        <ele>5232.8</ele>
        <time>2015-09-04T09:35:25Z</time>
      </trkpt>
      <trkpt lat="33.77128" lon="77.58062">
        <ele>5234</ele>
        <time>2015-09-04T09:35:33Z</time>
      </trkpt>
      <trkpt lat="33.77123" lon="77.58065">
        <ele>5235</ele>
        <time>2015-09-04T09:35:53Z</time>
      </trkpt>
      <trkpt lat="33.77121" lon="77.58066">
        <ele>5236</ele>
        <time>2015-09-04T09:36:02Z</time>
      </trkpt>
      <trkpt lat="33.77118" lon="77.58069">
        <ele>5237.2</ele>
        <time>2015-09-04T09:36:15Z</time>
      </trkpt>
      <trkpt lat="33.77114" lon="77.58076">
        <ele>5238.2</ele>
        <time>2015-09-04T09:36:33Z</time>
      </trkpt>
      <trkpt lat="33.7711" lon="77.5808">
        <ele>5239.4</ele>
        <time>2015-09-04T09:36:51Z</time>
      </trkpt>
      <trkpt lat="33.77107" lon="77.58081">
        <ele>5240.4</ele>
        <time>2015-09-04T09:36:56Z</time>
      </trkpt>
      <trkpt lat="33.77104" lon="77.58082">
        <ele>5241.4</ele>
        <time>2015-09-04T09:37:07Z</time>
      </trkpt>
      <trkpt lat="33.771" lon="77.58087">
        <ele>5242.4</ele>
        <time>2015-09-04T09:37:23Z</time>
      </trkpt>
      <trkpt lat="33.77098" lon="77.58091">
        <ele>5243.6</ele>
        <time>2015-09-04T09:37:36Z</time>
      </trkpt>
      <trkpt lat="33.77094" lon="77.5809">
        <ele>5244.6</ele>
        <time>2015-09-04T09:37:48Z</time>
      </trkpt>
      <trkpt lat="33.77092" lon="77.58089">
        <ele>5245.8</ele>
        <time>2015-09-04T09:37:56Z</time>
      </trkpt>
      <trkpt lat="33.77089" lon="77.58086">
        <ele>5246.8</ele>
        <time>2015-09-04T09:38:07Z</time>
      </trkpt>
      <trkpt lat="33.77088" lon="77.58085">
        <ele>5247.8</ele>
        <time>2015-09-04T09:38:19Z</time>
      </trkpt>
      <trkpt lat="33.77086" lon="77.58084">
        <ele>5249</ele>
        <time>2015-09-04T09:38:30Z</time>
      </trkpt>
      <trkpt lat="33.77081" lon="77.58087">
        <ele>5250</ele>
        <time>2015-09-04T09:38:44Z</time>
      </trkpt>
      <trkpt lat="33.77079" lon="77.58087">
        <ele>5251.2</ele>
        <time>2015-09-04T09:38:50Z</time>
      </trkpt>
      <trkpt lat="33.77076" lon="77.58087">
        <ele>5252.2</ele>
        <time>2015-09-04T09:39:02Z</time>
      </trkpt>
      <trkpt lat="33.77074" lon="77.58084">
        <ele>5253.2</ele>
        <time>2015-09-04T09:39:11Z</time>
      </trkpt>
      <trkpt lat="33.77069" lon="77.58082">
        <ele>5254.2</ele>
        <time>2015-09-04T09:39:23Z</time>
      </trkpt>
      <trkpt lat="33.77068" lon="77.58078">
        <ele>5255.4</ele>
        <time>2015-09-04T09:39:35Z</time>
      </trkpt>
      <trkpt lat="33.77066" lon="77.58074">
        <ele>5256.4</ele>
        <time>2015-09-04T09:39:47Z</time>
      </trkpt>
      <trkpt lat="33.77064" lon="77.58072">
        <ele>5257.4</ele>
        <time>2015-09-04T09:39:56Z</time>
      </trkpt>
      <trkpt lat="33.77061" lon="77.58067">
        <ele>5258.4</ele>
        <time>2015-09-04T09:40:10Z</time>
      </trkpt>
      <trkpt lat="33.77057" lon="77.58067">
        <ele>5259.4</ele>
        <time>2015-09-04T09:40:21Z</time>
      </trkpt>
      <trkpt lat="33.77054" lon="77.58067">
        <ele>5260.4</ele>
        <time>2015-09-04T09:40:32Z</time>
      </trkpt>
      <trkpt lat="33.7705" lon="77.58066">
        <ele>5261.6</ele>
        <time>2015-09-04T09:40:44Z</time>
      </trkpt>
      <trkpt lat="33.77048" lon="77.58063">
        <ele>5262.6</ele>
        <time>2015-09-04T09:40:54Z</time>
      </trkpt>
      <trkpt lat="33.77044" lon="77.5806">
        <ele>5263.6</ele>
        <time>2015-09-04T09:41:05Z</time>
      </trkpt>
      <trkpt lat="33.77042" lon="77.58055">
        <ele>5264.6</ele>
        <time>2015-09-04T09:41:16Z</time>
      </trkpt>
      <trkpt lat="33.77043" lon="77.58051">
        <ele>5265.8</ele>
        <time>2015-09-04T09:41:28Z</time>
      </trkpt>
      <trkpt lat="33.77041" lon="77.58045">
        <ele>5266.8</ele>
        <time>2015-09-04T09:41:38Z</time>
      </trkpt>
      <trkpt lat="33.7704" lon="77.58041">
        <ele>5267.8</ele>
        <time>2015-09-04T09:41:49Z</time>
      </trkpt>
      <trkpt lat="33.77036" lon="77.5804">
        <ele>5268.8</ele>
        <time>2015-09-04T09:42:01Z</time>
      </trkpt>
      <trkpt lat="33.7703" lon="77.58038">
        <ele>5270</ele>
        <time>2015-09-04T09:42:12Z</time>
      </trkpt>
      <trkpt lat="33.77026" lon="77.58033">
        <ele>5271</ele>
        <time>2015-09-04T09:42:25Z</time>
      </trkpt>
      <trkpt lat="33.77025" lon="77.58031">
        <ele>5272</ele>
        <time>2015-09-04T09:42:36Z</time>
      </trkpt>
      <trkpt lat="33.77022" lon="77.58025">
        <ele>5273</ele>
        <time>2015-09-04T09:42:49Z</time>
      </trkpt>
      <trkpt lat="33.77018" lon="77.5802">
        <ele>5274</ele>
        <time>2015-09-04T09:43:00Z</time>
      </trkpt>
      <trkpt lat="33.77019" lon="77.58016">
        <ele>5275</ele>
        <time>2015-09-04T09:43:11Z</time>
      </trkpt>
      <trkpt lat="33.77018" lon="77.5801">
        <ele>5276.2</ele>
        <time>2015-09-04T09:43:24Z</time>
      </trkpt>
      <trkpt lat="33.77015" lon="77.58005">
        <ele>5277.2</ele>
        <time>2015-09-04T09:43:37Z</time>
      </trkpt>
      <trkpt lat="33.77012" lon="77.58001">
        <ele>5278.2</ele>
        <time>2015-09-04T09:43:49Z</time>
      </trkpt>
      <trkpt lat="33.7701" lon="77.57997">
        <ele>5279.4</ele>
        <time>2015-09-04T09:43:57Z</time>
      </trkpt>
      <trkpt lat="33.77009" lon="77.57989">
        <ele>5280.6</ele>
        <time>2015-09-04T09:44:12Z</time>
      </trkpt>
      <trkpt lat="33.77006" lon="77.57984">
        <ele>5281.6</ele>
        <time>2015-09-04T09:44:24Z</time>
      </trkpt>
      <trkpt lat="33.77004" lon="77.5798">
        <ele>5282.6</ele>
        <time>2015-09-04T09:44:35Z</time>
      </trkpt>
      <trkpt lat="33.77" lon="77.57977">
        <ele>5283.8</ele>
        <time>2015-09-04T09:44:49Z</time>
      </trkpt>
      <trkpt lat="33.76996" lon="77.57973">
        <ele>5284.8</ele>
        <time>2015-09-04T09:45:01Z</time>
      </trkpt>
      <trkpt lat="33.7699" lon="77.57971">
        <ele>5285.8</ele>
        <time>2015-09-04T09:45:17Z</time>
      </trkpt>
      <trkpt lat="33.76987" lon="77.57967">
        <ele>5287</ele>
        <time>2015-09-04T09:45:26Z</time>
      </trkpt>
      <trkpt lat="33.76982" lon="77.57963">
        <ele>5288</ele>
        <time>2015-09-04T09:45:39Z</time>
      </trkpt>
      <trkpt lat="33.76978" lon="77.5796">
        <ele>5289</ele>
        <time>2015-09-04T09:45:49Z</time>
      </trkpt>
      <trkpt lat="33.76974" lon="77.57957">
        <ele>5290.2</ele>
        <time>2015-09-04T09:46:01Z</time>
      </trkpt>
      <trkpt lat="33.7697" lon="77.57956">
        <ele>5291.2</ele>
        <time>2015-09-04T09:46:12Z</time>
      </trkpt>
      <trkpt lat="33.76967" lon="77.57951">
        <ele>5292.4</ele>
        <time>2015-09-04T09:46:22Z</time>
      </trkpt>
      <trkpt lat="33.76965" lon="77.57946">
        <ele>5293.4</ele>
        <time>2015-09-04T09:46:31Z</time>
      </trkpt>
      <trkpt lat="33.76959" lon="77.57942">
        <ele>5294.4</ele>
        <time>2015-09-04T09:46:43Z</time>
      </trkpt>
      <trkpt lat="33.76959" lon="77.57938">
        <ele>5295.4</ele>
        <time>2015-09-04T09:46:54Z</time>
      </trkpt>
      <trkpt lat="33.76955" lon="77.57933">
        <ele>5296.6</ele>
        <time>2015-09-04T09:47:04Z</time>
      </trkpt>
      <trkpt lat="33.76952" lon="77.57931">
        <ele>5297.6</ele>
        <time>2015-09-04T09:47:12Z</time>
      </trkpt>
      <trkpt lat="33.76947" lon="77.57927">
        <ele>5298.6</ele>
        <time>2015-09-04T09:47:21Z</time>
      </trkpt>
      <trkpt lat="33.76943" lon="77.5792">
        <ele>5299.6</ele>
        <time>2015-09-04T09:47:33Z</time>
      </trkpt>
      <trkpt lat="33.76941" lon="77.57916">
        <ele>5300.6</ele>
        <time>2015-09-04T09:47:45Z</time>
      </trkpt>
      <trkpt lat="33.76936" lon="77.57908">
        <ele>5301.6</ele>
        <time>2015-09-04T09:48:04Z</time>
      </trkpt>
      <trkpt lat="33.76933" lon="77.57897">
        <ele>5302.6</ele>
        <time>2015-09-04T09:48:19Z</time>
      </trkpt>
      <trkpt lat="33.76927" lon="77.57887">
        <ele>5303.8</ele>
        <time>2015-09-04T09:48:34Z</time>
      </trkpt>
      <trkpt lat="33.76925" lon="77.57885">
        <ele>5303.8</ele>
        <time>2015-09-04T09:48:37Z</time>
      </trkpt>
      <trkpt lat="33.76924" lon="77.57884">
        <ele>5303.8</ele>
        <time>2015-09-04T09:48:39Z</time>
      </trkpt>
      <trkpt lat="33.76923" lon="77.57882">
        <ele>5304</ele>
        <time>2015-09-04T09:48:41Z</time>
      </trkpt>
      <trkpt lat="33.76915" lon="77.57866">
        <ele>5304.4</ele>
        <time>2015-09-04T09:49:12Z</time>
      </trkpt>
      <trkpt lat="33.76918" lon="77.57868">
        <ele>5304.2</ele>
        <time>2015-09-04T09:49:14Z</time>
      </trkpt>
      <trkpt lat="33.76918" lon="77.57869">
        <ele>5304.2</ele>
        <time>2015-09-04T09:49:16Z</time>
      </trkpt>
      <trkpt lat="33.76921" lon="77.57871">
        <ele>5304.2</ele>
        <time>2015-09-04T09:49:18Z</time>
      </trkpt>
      <trkpt lat="33.76923" lon="77.57872">
        <ele>5304.4</ele>
        <time>2015-09-04T09:49:21Z</time>
      </trkpt>
      <trkpt lat="33.76923" lon="77.57874">
        <ele>5304.8</ele>
        <time>2015-09-04T09:49:26Z</time>
      </trkpt>
      <trkpt lat="33.76924" lon="77.57875">
        <ele>5305.4</ele>
        <time>2015-09-04T09:50:56Z</time>
      </trkpt>
      <trkpt lat="33.76925" lon="77.57876">
        <ele>5305.6</ele>
        <time>2015-09-04T09:50:58Z</time>
      </trkpt>
      <trkpt lat="33.76921" lon="77.57872">
        <ele>5305.2</ele>
        <time>2015-09-04T09:51:05Z</time>
      </trkpt>
      <trkpt lat="33.7692" lon="77.57871">
        <ele>5305.4</ele>
        <time>2015-09-04T09:51:07Z</time>
      </trkpt>
      <trkpt lat="33.7692" lon="77.5787">
        <ele>5305.8</ele>
        <time>2015-09-04T09:51:23Z</time>
      </trkpt>
      <trkpt lat="33.76922" lon="77.57876">
        <ele>5306.4</ele>
        <time>2015-09-04T09:54:44Z</time>
      </trkpt>
      <trkpt lat="33.76922" lon="77.57874">
        <ele>5306.8</ele>
        <time>2015-09-04T09:54:46Z</time>
      </trkpt>
      <trkpt lat="33.7692" lon="77.57869">
        <ele>5305.8</ele>
        <time>2015-09-04T09:54:59Z</time>
      </trkpt>
      <trkpt lat="33.76924" lon="77.5787">
        <ele>5306.8</ele>
        <time>2015-09-04T09:55:40Z</time>
      </trkpt>
      <trkpt lat="33.76929" lon="77.57888">
        <ele>5306</ele>
        <time>2015-09-04T09:56:44Z</time>
      </trkpt>
      <trkpt lat="33.76933" lon="77.57891">
        <ele>5305.8</ele>
        <time>2015-09-04T09:56:49Z</time>
      </trkpt>
      <trkpt lat="33.76935" lon="77.57909">
        <ele>5304.8</ele>
        <time>2015-09-04T09:57:23Z</time>
      </trkpt>
      <trkpt lat="33.76938" lon="77.57915">
        <ele>5304.2</ele>
        <time>2015-09-04T09:57:32Z</time>
      </trkpt>
      <trkpt lat="33.76941" lon="77.57918">
        <ele>5303.8</ele>
        <time>2015-09-04T09:57:36Z</time>
      </trkpt>
      <trkpt lat="33.76945" lon="77.57922">
        <ele>5303.4</ele>
        <time>2015-09-04T09:57:43Z</time>
      </trkpt>
      <trkpt lat="33.76948" lon="77.57927">
        <ele>5302.6</ele>
        <time>2015-09-04T09:57:51Z</time>
      </trkpt>
      <trkpt lat="33.76953" lon="77.5793">
        <ele>5301.6</ele>
        <time>2015-09-04T09:57:59Z</time>
      </trkpt>
      <trkpt lat="33.76957" lon="77.57935">
        <ele>5300.6</ele>
        <time>2015-09-04T09:58:09Z</time>
      </trkpt>
      <trkpt lat="33.76961" lon="77.57939">
        <ele>5299.4</ele>
        <time>2015-09-04T09:58:17Z</time>
      </trkpt>
      <trkpt lat="33.76963" lon="77.57941">
        <ele>5298.4</ele>
        <time>2015-09-04T09:58:33Z</time>
      </trkpt>
      <trkpt lat="33.76965" lon="77.57947">
        <ele>5297.2</ele>
        <time>2015-09-04T09:58:42Z</time>
      </trkpt>
      <trkpt lat="33.76967" lon="77.57952">
        <ele>5296</ele>
        <time>2015-09-04T09:58:50Z</time>
      </trkpt>
      <trkpt lat="33.76974" lon="77.57958">
        <ele>5295</ele>
        <time>2015-09-04T09:59:09Z</time>
      </trkpt>
      <trkpt lat="33.76975" lon="77.57961">
        <ele>5293.8</ele>
        <time>2015-09-04T09:59:16Z</time>
      </trkpt>
      <trkpt lat="33.76981" lon="77.57962">
        <ele>5292.8</ele>
        <time>2015-09-04T09:59:24Z</time>
      </trkpt>
      <trkpt lat="33.76986" lon="77.57964">
        <ele>5291.6</ele>
        <time>2015-09-04T09:59:31Z</time>
      </trkpt>
      <trkpt lat="33.76992" lon="77.57966">
        <ele>5290.4</ele>
        <time>2015-09-04T09:59:38Z</time>
      </trkpt>
      <trkpt lat="33.76994" lon="77.57968">
        <ele>5289.4</ele>
        <time>2015-09-04T09:59:44Z</time>
      </trkpt>
      <trkpt lat="33.77001" lon="77.57973">
        <ele>5288.2</ele>
        <time>2015-09-04T09:59:54Z</time>
      </trkpt>
      <trkpt lat="33.77005" lon="77.57975">
        <ele>5287.2</ele>
        <time>2015-09-04T10:00:01Z</time>
      </trkpt>
      <trkpt lat="33.77009" lon="77.57979">
        <ele>5286</ele>
        <time>2015-09-04T10:00:13Z</time>
      </trkpt>
      <trkpt lat="33.77011" lon="77.57987">
        <ele>5285.2</ele>
        <time>2015-09-04T10:00:42Z</time>
      </trkpt>
      <trkpt lat="33.77012" lon="77.57988">
        <ele>5285</ele>
        <time>2015-09-04T10:00:43Z</time>
      </trkpt>
      <trkpt lat="33.77015" lon="77.5799">
        <ele>5284.2</ele>
        <time>2015-09-04T10:00:47Z</time>
      </trkpt>
      <trkpt lat="33.77016" lon="77.57992">
        <ele>5284</ele>
        <time>2015-09-04T10:00:49Z</time>
      </trkpt>
      <trkpt lat="33.77018" lon="77.57994">
        <ele>5283.8</ele>
        <time>2015-09-04T10:00:52Z</time>
      </trkpt>
      <trkpt lat="33.77021" lon="77.57996">
        <ele>5282.8</ele>
        <time>2015-09-04T10:00:57Z</time>
      </trkpt>
      <trkpt lat="33.77024" lon="77.57999">
        <ele>5282.6</ele>
        <time>2015-09-04T10:01:01Z</time>
      </trkpt>
      <trkpt lat="33.77026" lon="77.58">
        <ele>5282.2</ele>
        <time>2015-09-04T10:01:03Z</time>
      </trkpt>
      <trkpt lat="33.77026" lon="77.58001">
        <ele>5281.6</ele>
        <time>2015-09-04T10:01:05Z</time>
      </trkpt>
      <trkpt lat="33.77029" lon="77.58004">
        <ele>5280.4</ele>
        <time>2015-09-04T10:01:13Z</time>
      </trkpt>
      <trkpt lat="33.77027" lon="77.58009">
        <ele>5280.2</ele>
        <time>2015-09-04T10:01:20Z</time>
      </trkpt>
      <trkpt lat="33.77032" lon="77.58013">
        <ele>5279.4</ele>
        <time>2015-09-04T10:01:29Z</time>
      </trkpt>
      <trkpt lat="33.77033" lon="77.58017">
        <ele>5278.6</ele>
        <time>2015-09-04T10:01:34Z</time>
      </trkpt>
      <trkpt lat="33.77033" lon="77.58018">
        <ele>5278.4</ele>
        <time>2015-09-04T10:01:36Z</time>
      </trkpt>
      <trkpt lat="33.7703" lon="77.58021">
        <ele>5277.8</ele>
        <time>2015-09-04T10:01:41Z</time>
      </trkpt>
      <trkpt lat="33.77033" lon="77.58023">
        <ele>5277.2</ele>
        <time>2015-09-04T10:01:45Z</time>
      </trkpt>
      <trkpt lat="33.77036" lon="77.58026">
        <ele>5276</ele>
        <time>2015-09-04T10:01:52Z</time>
      </trkpt>
      <trkpt lat="33.77038" lon="77.58028">
        <ele>5275</ele>
        <time>2015-09-04T10:01:59Z</time>
      </trkpt>
      <trkpt lat="33.77042" lon="77.58029">
        <ele>5273.8</ele>
        <time>2015-09-04T10:02:05Z</time>
      </trkpt>
      <trkpt lat="33.77042" lon="77.58033">
        <ele>5272.8</ele>
        <time>2015-09-04T10:02:10Z</time>
      </trkpt>
      <trkpt lat="33.77043" lon="77.58044">
        <ele>5271.8</ele>
        <time>2015-09-04T10:02:26Z</time>
      </trkpt>
      <trkpt lat="33.77044" lon="77.58048">
        <ele>5270.6</ele>
        <time>2015-09-04T10:02:32Z</time>
      </trkpt>
      <trkpt lat="33.77048" lon="77.58054">
        <ele>5269.6</ele>
        <time>2015-09-04T10:02:41Z</time>
      </trkpt>
      <trkpt lat="33.77055" lon="77.58053">
        <ele>5268.6</ele>
        <time>2015-09-04T10:02:51Z</time>
      </trkpt>
      <trkpt lat="33.77057" lon="77.58051">
        <ele>5267.4</ele>
        <time>2015-09-04T10:02:55Z</time>
      </trkpt>
      <trkpt lat="33.77059" lon="77.58049">
        <ele>5266.2</ele>
        <time>2015-09-04T10:03:01Z</time>
      </trkpt>
      <trkpt lat="33.77065" lon="77.58051">
        <ele>5265.2</ele>
        <time>2015-09-04T10:03:11Z</time>
      </trkpt>
      <trkpt lat="33.77067" lon="77.5805">
        <ele>5264</ele>
        <time>2015-09-04T10:03:16Z</time>
      </trkpt>
      <trkpt lat="33.77071" lon="77.58053">
        <ele>5262.8</ele>
        <time>2015-09-04T10:03:23Z</time>
      </trkpt>
      <trkpt lat="33.77078" lon="77.58053">
        <ele>5261.6</ele>
        <time>2015-09-04T10:03:36Z</time>
      </trkpt>
      <trkpt lat="33.77081" lon="77.58051">
        <ele>5260.6</ele>
        <time>2015-09-04T10:03:41Z</time>
      </trkpt>
      <trkpt lat="33.77084" lon="77.58051">
        <ele>5259.4</ele>
        <time>2015-09-04T10:03:45Z</time>
      </trkpt>
      <trkpt lat="33.77086" lon="77.5805">
        <ele>5258.4</ele>
        <time>2015-09-04T10:03:52Z</time>
      </trkpt>
      <trkpt lat="33.77089" lon="77.58051">
        <ele>5257.2</ele>
        <time>2015-09-04T10:04:06Z</time>
      </trkpt>
      <trkpt lat="33.77093" lon="77.58052">
        <ele>5256</ele>
        <time>2015-09-04T10:04:12Z</time>
      </trkpt>
      <trkpt lat="33.77096" lon="77.58053">
        <ele>5254.8</ele>
        <time>2015-09-04T10:04:19Z</time>
      </trkpt>
      <trkpt lat="33.77099" lon="77.58055">
        <ele>5253.8</ele>
        <time>2015-09-04T10:04:26Z</time>
      </trkpt>
      <trkpt lat="33.771" lon="77.58059">
        <ele>5252.8</ele>
        <time>2015-09-04T10:04:31Z</time>
      </trkpt>
      <trkpt lat="33.77102" lon="77.58059">
        <ele>5251.6</ele>
        <time>2015-09-04T10:04:36Z</time>
      </trkpt>
      <trkpt lat="33.77103" lon="77.58061">
        <ele>5250.6</ele>
        <time>2015-09-04T10:04:41Z</time>
      </trkpt>
      <trkpt lat="33.77103" lon="77.58067">
        <ele>5249.4</ele>
        <time>2015-09-04T10:04:49Z</time>
      </trkpt>
      <trkpt lat="33.77103" lon="77.58071">
        <ele>5248.4</ele>
        <time>2015-09-04T10:04:56Z</time>
      </trkpt>
      <trkpt lat="33.7711" lon="77.58073">
        <ele>5247.2</ele>
        <time>2015-09-04T10:05:02Z</time>
      </trkpt>
      <trkpt lat="33.77111" lon="77.58073">
        <ele>5246.2</ele>
        <time>2015-09-04T10:05:09Z</time>
      </trkpt>
      <trkpt lat="33.77115" lon="77.58075">
        <ele>5245</ele>
        <time>2015-09-04T10:05:17Z</time>
      </trkpt>
      <trkpt lat="33.77117" lon="77.58074">
        <ele>5244</ele>
        <time>2015-09-04T10:05:21Z</time>
      </trkpt>
      <trkpt lat="33.7712" lon="77.58072">
        <ele>5243</ele>
        <time>2015-09-04T10:05:31Z</time>
      </trkpt>
      <trkpt lat="33.77123" lon="77.5807">
        <ele>5242</ele>
        <time>2015-09-04T10:05:37Z</time>
      </trkpt>
      <trkpt lat="33.77126" lon="77.58067">
        <ele>5240.8</ele>
        <time>2015-09-04T10:05:45Z</time>
      </trkpt>
      <trkpt lat="33.77129" lon="77.58065">
        <ele>5239.8</ele>
        <time>2015-09-04T10:05:51Z</time>
      </trkpt>
      <trkpt lat="33.77133" lon="77.58065">
        <ele>5238.8</ele>
        <time>2015-09-04T10:05:58Z</time>
      </trkpt>
      <trkpt lat="33.77136" lon="77.58068">
        <ele>5237.6</ele>
        <time>2015-09-04T10:06:08Z</time>
      </trkpt>
      <trkpt lat="33.77141" lon="77.58068">
        <ele>5236.6</ele>
        <time>2015-09-04T10:06:15Z</time>
      </trkpt>
      <trkpt lat="33.77142" lon="77.58068">
        <ele>5236.2</ele>
        <time>2015-09-04T10:06:17Z</time>
      </trkpt>
      <trkpt lat="33.77145" lon="77.58072">
        <ele>5235.4</ele>
        <time>2015-09-04T10:06:23Z</time>
      </trkpt>
      <trkpt lat="33.7715" lon="77.58072">
        <ele>5234.4</ele>
        <time>2015-09-04T10:06:30Z</time>
      </trkpt>
      <trkpt lat="33.77153" lon="77.58074">
        <ele>5233.4</ele>
        <time>2015-09-04T10:06:37Z</time>
      </trkpt>
      <trkpt lat="33.77156" lon="77.58076">
        <ele>5232.2</ele>
        <time>2015-09-04T10:06:43Z</time>
      </trkpt>
      <trkpt lat="33.77161" lon="77.58077">
        <ele>5231.4</ele>
        <time>2015-09-04T10:06:50Z</time>
      </trkpt>
      <trkpt lat="33.77162" lon="77.58077">
        <ele>5231.2</ele>
        <time>2015-09-04T10:06:52Z</time>
      </trkpt>
      <trkpt lat="33.77166" lon="77.58077">
        <ele>5230</ele>
        <time>2015-09-04T10:06:56Z</time>
      </trkpt>
      <trkpt lat="33.77171" lon="77.58077">
        <ele>5229</ele>
        <time>2015-09-04T10:07:04Z</time>
      </trkpt>
      <trkpt lat="33.77173" lon="77.58081">
        <ele>5228</ele>
        <time>2015-09-04T10:07:12Z</time>
      </trkpt>
      <trkpt lat="33.77178" lon="77.58081">
        <ele>5226.8</ele>
        <time>2015-09-04T10:07:21Z</time>
      </trkpt>
      <trkpt lat="33.77183" lon="77.58084">
        <ele>5225.8</ele>
        <time>2015-09-04T10:07:30Z</time>
      </trkpt>
      <trkpt lat="33.77183" lon="77.5809">
        <ele>5224.8</ele>
        <time>2015-09-04T10:07:36Z</time>
      </trkpt>
      <trkpt lat="33.77193" lon="77.58095">
        <ele>5223.6</ele>
        <time>2015-09-04T10:07:45Z</time>
      </trkpt>
      <trkpt lat="33.77196" lon="77.58097">
        <ele>5222.6</ele>
        <time>2015-09-04T10:07:54Z</time>
      </trkpt>
      <trkpt lat="33.77198" lon="77.58099">
        <ele>5222.2</ele>
        <time>2015-09-04T10:07:58Z</time>
      </trkpt>
      <trkpt lat="33.772" lon="77.58101">
        <ele>5221.4</ele>
        <time>2015-09-04T10:08:03Z</time>
      </trkpt>
      <trkpt lat="33.77203" lon="77.58104">
        <ele>5220.4</ele>
        <time>2015-09-04T10:08:11Z</time>
      </trkpt>
      <trkpt lat="33.77204" lon="77.58108">
        <ele>5219.4</ele>
        <time>2015-09-04T10:08:16Z</time>
      </trkpt>
      <trkpt lat="33.77209" lon="77.5811">
        <ele>5218.4</ele>
        <time>2015-09-04T10:08:23Z</time>
      </trkpt>
      <trkpt lat="33.77213" lon="77.58113">
        <ele>5217.2</ele>
        <time>2015-09-04T10:08:31Z</time>
      </trkpt>
      <trkpt lat="33.77216" lon="77.58115">
        <ele>5216</ele>
        <time>2015-09-04T10:08:38Z</time>
      </trkpt>
      <trkpt lat="33.77225" lon="77.58115">
        <ele>5215.2</ele>
        <time>2015-09-04T10:08:47Z</time>
      </trkpt>
      <trkpt lat="33.77226" lon="77.58116">
        <ele>5215</ele>
        <time>2015-09-04T10:08:48Z</time>
      </trkpt>
      <trkpt lat="33.77229" lon="77.58116">
        <ele>5214.4</ele>
        <time>2015-09-04T10:08:51Z</time>
      </trkpt>
      <trkpt lat="33.77232" lon="77.58117">
        <ele>5213.8</ele>
        <time>2015-09-04T10:08:54Z</time>
      </trkpt>
      <trkpt lat="33.77232" lon="77.58117">
        <ele>5213.6</ele>
        <time>2015-09-04T10:08:55Z</time>
      </trkpt>
      <trkpt lat="33.77235" lon="77.5812">
        <ele>5212.8</ele>
        <time>2015-09-04T10:09:01Z</time>
      </trkpt>
      <trkpt lat="33.77239" lon="77.58121">
        <ele>5211.8</ele>
        <time>2015-09-04T10:09:07Z</time>
      </trkpt>
      <trkpt lat="33.77243" lon="77.58125">
        <ele>5210.6</ele>
        <time>2015-09-04T10:09:13Z</time>
      </trkpt>
      <trkpt lat="33.77245" lon="77.58129">
        <ele>5209.6</ele>
        <time>2015-09-04T10:09:19Z</time>
      </trkpt>
      <trkpt lat="33.77253" lon="77.58132">
        <ele>5208.6</ele>
        <time>2015-09-04T10:09:26Z</time>
      </trkpt>
      <trkpt lat="33.77257" lon="77.58132">
        <ele>5207.8</ele>
        <time>2015-09-04T10:09:31Z</time>
      </trkpt>
      <trkpt lat="33.77259" lon="77.58133">
        <ele>5207.6</ele>
        <time>2015-09-04T10:09:34Z</time>
      </trkpt>
      <trkpt lat="33.77262" lon="77.58131">
        <ele>5206.6</ele>
        <time>2015-09-04T10:09:41Z</time>
      </trkpt>
      <trkpt lat="33.77264" lon="77.58131">
        <ele>5205.6</ele>
        <time>2015-09-04T10:09:45Z</time>
      </trkpt>
      <trkpt lat="33.77269" lon="77.58132">
        <ele>5204.6</ele>
        <time>2015-09-04T10:09:52Z</time>
      </trkpt>
      <trkpt lat="33.77276" lon="77.58135">
        <ele>5203.4</ele>
        <time>2015-09-04T10:10:00Z</time>
      </trkpt>
      <trkpt lat="33.77279" lon="77.58137">
        <ele>5202.8</ele>
        <time>2015-09-04T10:10:04Z</time>
      </trkpt>
      <trkpt lat="33.77281" lon="77.58138">
        <ele>5202.4</ele>
        <time>2015-09-04T10:10:07Z</time>
      </trkpt>
      <trkpt lat="33.77287" lon="77.5814">
        <ele>5201.2</ele>
        <time>2015-09-04T10:10:15Z</time>
      </trkpt>
      <trkpt lat="33.77292" lon="77.58142">
        <ele>5200.2</ele>
        <time>2015-09-04T10:10:22Z</time>
      </trkpt>
      <trkpt lat="33.77296" lon="77.58146">
        <ele>5199.2</ele>
        <time>2015-09-04T10:10:28Z</time>
      </trkpt>
      <trkpt lat="33.77298" lon="77.58151">
        <ele>5198</ele>
        <time>2015-09-04T10:10:36Z</time>
      </trkpt>
      <trkpt lat="33.77302" lon="77.58153">
        <ele>5197.2</ele>
        <time>2015-09-04T10:10:40Z</time>
      </trkpt>
      <trkpt lat="33.77304" lon="77.58153">
        <ele>5197</ele>
        <time>2015-09-04T10:10:42Z</time>
      </trkpt>
      <trkpt lat="33.77314" lon="77.58152">
        <ele>5196</ele>
        <time>2015-09-04T10:10:51Z</time>
      </trkpt>
      <trkpt lat="33.77321" lon="77.58152">
        <ele>5194.8</ele>
        <time>2015-09-04T10:11:00Z</time>
      </trkpt>
      <trkpt lat="33.77324" lon="77.58156">
        <ele>5193.8</ele>
        <time>2015-09-04T10:11:05Z</time>
      </trkpt>
      <trkpt lat="33.77325" lon="77.58157">
        <ele>5193.6</ele>
        <time>2015-09-04T10:11:06Z</time>
      </trkpt>
      <trkpt lat="33.77327" lon="77.58159">
        <ele>5193.4</ele>
        <time>2015-09-04T10:11:08Z</time>
      </trkpt>
      <trkpt lat="33.77333" lon="77.58159">
        <ele>5192.6</ele>
        <time>2015-09-04T10:11:16Z</time>
      </trkpt>
      <trkpt lat="33.77339" lon="77.5816">
        <ele>5191.4</ele>
        <time>2015-09-04T10:11:24Z</time>
      </trkpt>
      <trkpt lat="33.77346" lon="77.58162">
        <ele>5190.2</ele>
        <time>2015-09-04T10:11:32Z</time>
      </trkpt>
      <trkpt lat="33.7735" lon="77.58166">
        <ele>5189.2</ele>
        <time>2015-09-04T10:11:37Z</time>
      </trkpt>
      <trkpt lat="33.77353" lon="77.58171">
        <ele>5188.2</ele>
        <time>2015-09-04T10:11:45Z</time>
      </trkpt>
      <trkpt lat="33.77357" lon="77.58175">
        <ele>5187</ele>
        <time>2015-09-04T10:11:53Z</time>
      </trkpt>
      <trkpt lat="33.77361" lon="77.58175">
        <ele>5186</ele>
        <time>2015-09-04T10:12:00Z</time>
      </trkpt>
      <trkpt lat="33.77367" lon="77.58178">
        <ele>5184.8</ele>
        <time>2015-09-04T10:12:11Z</time>
      </trkpt>
      <trkpt lat="33.7737" lon="77.58181">
        <ele>5184.6</ele>
        <time>2015-09-04T10:12:14Z</time>
      </trkpt>
      <trkpt lat="33.77371" lon="77.58184">
        <ele>5184</ele>
        <time>2015-09-04T10:12:17Z</time>
      </trkpt>
      <trkpt lat="33.77372" lon="77.58185">
        <ele>5183.8</ele>
        <time>2015-09-04T10:12:19Z</time>
      </trkpt>
      <trkpt lat="33.77379" lon="77.58187">
        <ele>5183</ele>
        <time>2015-09-04T10:12:25Z</time>
      </trkpt>
      <trkpt lat="33.7738" lon="77.58187">
        <ele>5182.8</ele>
        <time>2015-09-04T10:12:26Z</time>
      </trkpt>
      <trkpt lat="33.77387" lon="77.58189">
        <ele>5181.6</ele>
        <time>2015-09-04T10:12:35Z</time>
      </trkpt>
      <trkpt lat="33.77391" lon="77.58192">
        <ele>5180.6</ele>
        <time>2015-09-04T10:12:45Z</time>
      </trkpt>
      <trkpt lat="33.77396" lon="77.58195">
        <ele>5179.8</ele>
        <time>2015-09-04T10:12:53Z</time>
      </trkpt>
      <trkpt lat="33.77396" lon="77.58197">
        <ele>5179.4</ele>
        <time>2015-09-04T10:12:55Z</time>
      </trkpt>
      <trkpt lat="33.774" lon="77.58198">
        <ele>5178.6</ele>
        <time>2015-09-04T10:13:00Z</time>
      </trkpt>
      <trkpt lat="33.774" lon="77.582">
        <ele>5178.4</ele>
        <time>2015-09-04T10:13:02Z</time>
      </trkpt>
      <trkpt lat="33.77401" lon="77.58201">
        <ele>5178.4</ele>
        <time>2015-09-04T10:13:03Z</time>
      </trkpt>
      <trkpt lat="33.77405" lon="77.58205">
        <ele>5177.4</ele>
        <time>2015-09-04T10:13:10Z</time>
      </trkpt>
      <trkpt lat="33.77407" lon="77.58206">
        <ele>5176.2</ele>
        <time>2015-09-04T10:13:16Z</time>
      </trkpt>
      <trkpt lat="33.77415" lon="77.58209">
        <ele>5175.2</ele>
        <time>2015-09-04T10:13:27Z</time>
      </trkpt>
      <trkpt lat="33.77419" lon="77.58211">
        <ele>5174.8</ele>
        <time>2015-09-04T10:13:30Z</time>
      </trkpt>
      <trkpt lat="33.77422" lon="77.58211">
        <ele>5174.4</ele>
        <time>2015-09-04T10:13:33Z</time>
      </trkpt>
      <trkpt lat="33.77424" lon="77.5821">
        <ele>5174.2</ele>
        <time>2015-09-04T10:13:35Z</time>
      </trkpt>
      <trkpt lat="33.7743" lon="77.58211">
        <ele>5173.2</ele>
        <time>2015-09-04T10:13:49Z</time>
      </trkpt>
      <trkpt lat="33.77435" lon="77.58216">
        <ele>5172</ele>
        <time>2015-09-04T10:13:57Z</time>
      </trkpt>
      <trkpt lat="33.77439" lon="77.58217">
        <ele>5171</ele>
        <time>2015-09-04T10:14:07Z</time>
      </trkpt>
      <trkpt lat="33.77443" lon="77.58222">
        <ele>5169.6</ele>
        <time>2015-09-04T10:14:19Z</time>
      </trkpt>
      <trkpt lat="33.77448" lon="77.58225">
        <ele>5168.6</ele>
        <time>2015-09-04T10:14:29Z</time>
      </trkpt>
      <trkpt lat="33.77453" lon="77.58231">
        <ele>5167.4</ele>
        <time>2015-09-04T10:14:40Z</time>
      </trkpt>
      <trkpt lat="33.77455" lon="77.58234">
        <ele>5166.6</ele>
        <time>2015-09-04T10:14:44Z</time>
      </trkpt>
      <trkpt lat="33.77456" lon="77.58235">
        <ele>5166.4</ele>
        <time>2015-09-04T10:14:46Z</time>
      </trkpt>
      <trkpt lat="33.77459" lon="77.58236">
        <ele>5165.4</ele>
        <time>2015-09-04T10:14:52Z</time>
      </trkpt>
      <trkpt lat="33.77464" lon="77.58238">
        <ele>5164.4</ele>
        <time>2015-09-04T10:15:00Z</time>
      </trkpt>
      <trkpt lat="33.77471" lon="77.5824">
        <ele>5163.2</ele>
        <time>2015-09-04T10:15:10Z</time>
      </trkpt>
      <trkpt lat="33.77475" lon="77.58243">
        <ele>5162.2</ele>
        <time>2015-09-04T10:15:17Z</time>
      </trkpt>
      <trkpt lat="33.77478" lon="77.58245">
        <ele>5161</ele>
        <time>2015-09-04T10:15:23Z</time>
      </trkpt>
      <trkpt lat="33.7748" lon="77.58246">
        <ele>5160.8</ele>
        <time>2015-09-04T10:15:25Z</time>
      </trkpt>
      <trkpt lat="33.77482" lon="77.58247">
        <ele>5160.6</ele>
        <time>2015-09-04T10:15:28Z</time>
      </trkpt>
      <trkpt lat="33.77485" lon="77.58251">
        <ele>5159.8</ele>
        <time>2015-09-04T10:15:34Z</time>
      </trkpt>
      <trkpt lat="33.77491" lon="77.58255">
        <ele>5159</ele>
        <time>2015-09-04T10:15:41Z</time>
      </trkpt>
      <trkpt lat="33.77493" lon="77.58256">
        <ele>5158.6</ele>
        <time>2015-09-04T10:15:43Z</time>
      </trkpt>
      <trkpt lat="33.775" lon="77.58259">
        <ele>5157.6</ele>
        <time>2015-09-04T10:15:50Z</time>
      </trkpt>
      <trkpt lat="33.77502" lon="77.5826">
        <ele>5157.2</ele>
        <time>2015-09-04T10:15:52Z</time>
      </trkpt>
      <trkpt lat="33.77503" lon="77.58261">
        <ele>5157</ele>
        <time>2015-09-04T10:15:55Z</time>
      </trkpt>
      <trkpt lat="33.77506" lon="77.58264">
        <ele>5156.4</ele>
        <time>2015-09-04T10:16:00Z</time>
      </trkpt>
      <trkpt lat="33.77512" lon="77.58266">
        <ele>5155.4</ele>
        <time>2015-09-04T10:16:10Z</time>
      </trkpt>
      <trkpt lat="33.77514" lon="77.58267">
        <ele>5154.8</ele>
        <time>2015-09-04T10:16:12Z</time>
      </trkpt>
      <trkpt lat="33.77515" lon="77.58268">
        <ele>5154.4</ele>
        <time>2015-09-04T10:16:14Z</time>
      </trkpt>
      <trkpt lat="33.77518" lon="77.58268">
        <ele>5153.2</ele>
        <time>2015-09-04T10:16:18Z</time>
      </trkpt>
      <trkpt lat="33.77523" lon="77.58269">
        <ele>5152.4</ele>
        <time>2015-09-04T10:16:24Z</time>
      </trkpt>
      <trkpt lat="33.77525" lon="77.58269">
        <ele>5152.2</ele>
        <time>2015-09-04T10:16:26Z</time>
      </trkpt>
      <trkpt lat="33.77529" lon="77.58273">
        <ele>5151.4</ele>
        <time>2015-09-04T10:16:32Z</time>
      </trkpt>
      <trkpt lat="33.77535" lon="77.58276">
        <ele>5151.2</ele>
        <time>2015-09-04T10:16:39Z</time>
      </trkpt>
      <trkpt lat="33.77536" lon="77.58277">
        <ele>5150.8</ele>
        <time>2015-09-04T10:16:41Z</time>
      </trkpt>
      <trkpt lat="33.77541" lon="77.5828">
        <ele>5150.2</ele>
        <time>2015-09-04T10:16:46Z</time>
      </trkpt>
      <trkpt lat="33.77546" lon="77.58279">
        <ele>5149</ele>
        <time>2015-09-04T10:16:52Z</time>
      </trkpt>
      <trkpt lat="33.7755" lon="77.58282">
        <ele>5148</ele>
        <time>2015-09-04T10:17:00Z</time>
      </trkpt>
      <trkpt lat="33.77553" lon="77.58284">
        <ele>5147</ele>
        <time>2015-09-04T10:17:06Z</time>
      </trkpt>
      <trkpt lat="33.77554" lon="77.58287">
        <ele>5146.8</ele>
        <time>2015-09-04T10:17:08Z</time>
      </trkpt>
      <trkpt lat="33.77556" lon="77.5829">
        <ele>5146.6</ele>
        <time>2015-09-04T10:17:12Z</time>
      </trkpt>
      <trkpt lat="33.77562" lon="77.58292">
        <ele>5146</ele>
        <time>2015-09-04T10:17:20Z</time>
      </trkpt>
      <trkpt lat="33.77566" lon="77.58293">
        <ele>5145</ele>
        <time>2015-09-04T10:17:26Z</time>
      </trkpt>
      <trkpt lat="33.77574" lon="77.58303">
        <ele>5143.8</ele>
        <time>2015-09-04T10:17:46Z</time>
      </trkpt>
      <trkpt lat="33.77578" lon="77.58306">
        <ele>5143</ele>
        <time>2015-09-04T10:17:52Z</time>
      </trkpt>
      <trkpt lat="33.7758" lon="77.58307">
        <ele>5142.8</ele>
        <time>2015-09-04T10:17:54Z</time>
      </trkpt>
      <trkpt lat="33.77584" lon="77.58309">
        <ele>5142</ele>
        <time>2015-09-04T10:17:59Z</time>
      </trkpt>
      <trkpt lat="33.77584" lon="77.5831">
        <ele>5141.8</ele>
        <time>2015-09-04T10:18:02Z</time>
      </trkpt>
      <trkpt lat="33.77591" lon="77.58308">
        <ele>5140.6</ele>
        <time>2015-09-04T10:18:12Z</time>
      </trkpt>
      <trkpt lat="33.77597" lon="77.58309">
        <ele>5139.6</ele>
        <time>2015-09-04T10:18:22Z</time>
      </trkpt>
      <trkpt lat="33.77601" lon="77.58312">
        <ele>5139.2</ele>
        <time>2015-09-04T10:18:26Z</time>
      </trkpt>
      <trkpt lat="33.77604" lon="77.58313">
        <ele>5138.6</ele>
        <time>2015-09-04T10:18:33Z</time>
      </trkpt>
      <trkpt lat="33.77609" lon="77.58316">
        <ele>5138</ele>
        <time>2015-09-04T10:18:39Z</time>
      </trkpt>
      <trkpt lat="33.77611" lon="77.58317">
        <ele>5137.4</ele>
        <time>2015-09-04T10:18:42Z</time>
      </trkpt>
      <trkpt lat="33.77612" lon="77.58317">
        <ele>5137.4</ele>
        <time>2015-09-04T10:18:44Z</time>
      </trkpt>
      <trkpt lat="33.77616" lon="77.58318">
        <ele>5137.4</ele>
        <time>2015-09-04T10:18:48Z</time>
      </trkpt>
      <trkpt lat="33.77622" lon="77.58321">
        <ele>5136.4</ele>
        <time>2015-09-04T10:18:58Z</time>
      </trkpt>
      <trkpt lat="33.77624" lon="77.58324">
        <ele>5136.4</ele>
        <time>2015-09-04T10:19:01Z</time>
      </trkpt>
      <trkpt lat="33.77627" lon="77.58326">
        <ele>5135.4</ele>
        <time>2015-09-04T10:19:11Z</time>
      </trkpt>
      <trkpt lat="33.77633" lon="77.58328">
        <ele>5134.4</ele>
        <time>2015-09-04T10:19:19Z</time>
      </trkpt>
      <trkpt lat="33.7764" lon="77.58333">
        <ele>5133.2</ele>
        <time>2015-09-04T10:19:29Z</time>
      </trkpt>
      <trkpt lat="33.77643" lon="77.58333">
        <ele>5132.4</ele>
        <time>2015-09-04T10:19:33Z</time>
      </trkpt>
      <trkpt lat="33.77645" lon="77.58334">
        <ele>5132.2</ele>
        <time>2015-09-04T10:19:38Z</time>
      </trkpt>
      <trkpt lat="33.7765" lon="77.58335">
        <ele>5131.2</ele>
        <time>2015-09-04T10:19:47Z</time>
      </trkpt>
      <trkpt lat="33.77655" lon="77.58337">
        <ele>5130</ele>
        <time>2015-09-04T10:19:56Z</time>
      </trkpt>
      <trkpt lat="33.77661" lon="77.58338">
        <ele>5129</ele>
        <time>2015-09-04T10:20:04Z</time>
      </trkpt>
      <trkpt lat="33.77668" lon="77.5834">
        <ele>5128</ele>
        <time>2015-09-04T10:20:16Z</time>
      </trkpt>
      <trkpt lat="33.77673" lon="77.58344">
        <ele>5127</ele>
        <time>2015-09-04T10:20:24Z</time>
      </trkpt>
      <trkpt lat="33.77684" lon="77.58349">
        <ele>5125.8</ele>
        <time>2015-09-04T10:20:37Z</time>
      </trkpt>
      <trkpt lat="33.77688" lon="77.58347">
        <ele>5125.6</ele>
        <time>2015-09-04T10:20:41Z</time>
      </trkpt>
      <trkpt lat="33.77689" lon="77.58352">
        <ele>5124.8</ele>
        <time>2015-09-04T10:20:47Z</time>
      </trkpt>
      <trkpt lat="33.77694" lon="77.58353">
        <ele>5123.8</ele>
        <time>2015-09-04T10:20:58Z</time>
      </trkpt>
      <trkpt lat="33.777" lon="77.58354">
        <ele>5122.8</ele>
        <time>2015-09-04T10:21:04Z</time>
      </trkpt>
      <trkpt lat="33.77704" lon="77.58356">
        <ele>5122.6</ele>
        <time>2015-09-04T10:21:09Z</time>
      </trkpt>
      <trkpt lat="33.77705" lon="77.58358">
        <ele>5122.6</ele>
        <time>2015-09-04T10:21:11Z</time>
      </trkpt>
      <trkpt lat="33.77707" lon="77.58357">
        <ele>5122.6</ele>
        <time>2015-09-04T10:21:13Z</time>
      </trkpt>
      <trkpt lat="33.77712" lon="77.58359">
        <ele>5122.2</ele>
        <time>2015-09-04T10:21:20Z</time>
      </trkpt>
      <trkpt lat="33.7772" lon="77.5836">
        <ele>5121.8</ele>
        <time>2015-09-04T10:21:30Z</time>
      </trkpt>
      <trkpt lat="33.77721" lon="77.5836">
        <ele>5121.4</ele>
        <time>2015-09-04T10:21:31Z</time>
      </trkpt>
      <trkpt lat="33.77723" lon="77.58359">
        <ele>5120.8</ele>
        <time>2015-09-04T10:21:33Z</time>
      </trkpt>
      <trkpt lat="33.77724" lon="77.58359">
        <ele>5120.6</ele>
        <time>2015-09-04T10:21:34Z</time>
      </trkpt>
      <trkpt lat="33.77738" lon="77.58363">
        <ele>5119.6</ele>
        <time>2015-09-04T10:21:57Z</time>
      </trkpt>
      <trkpt lat="33.77742" lon="77.58365">
        <ele>5118.6</ele>
        <time>2015-09-04T10:22:08Z</time>
      </trkpt>
      <trkpt lat="33.77747" lon="77.58365">
        <ele>5117.6</ele>
        <time>2015-09-04T10:22:13Z</time>
      </trkpt>
      <trkpt lat="33.77753" lon="77.58365">
        <ele>5116.6</ele>
        <time>2015-09-04T10:22:18Z</time>
      </trkpt>
      <trkpt lat="33.77753" lon="77.58366">
        <ele>5116.4</ele>
        <time>2015-09-04T10:22:19Z</time>
      </trkpt>
      <trkpt lat="33.77759" lon="77.5837">
        <ele>5115.2</ele>
        <time>2015-09-04T10:22:26Z</time>
      </trkpt>
      <trkpt lat="33.7776" lon="77.58372">
        <ele>5114.8</ele>
        <time>2015-09-04T10:22:28Z</time>
      </trkpt>
      <trkpt lat="33.77767" lon="77.58374">
        <ele>5114.2</ele>
        <time>2015-09-04T10:22:38Z</time>
      </trkpt>
      <trkpt lat="33.77773" lon="77.58374">
        <ele>5114</ele>
        <time>2015-09-04T10:22:44Z</time>
      </trkpt>
      <trkpt lat="33.77774" lon="77.58377">
        <ele>5114</ele>
        <time>2015-09-04T10:22:46Z</time>
      </trkpt>
      <trkpt lat="33.77775" lon="77.58379">
        <ele>5114</ele>
        <time>2015-09-04T10:22:48Z</time>
      </trkpt>
      <trkpt lat="33.77777" lon="77.58389">
        <ele>5113.2</ele>
        <time>2015-09-04T10:22:56Z</time>
      </trkpt>
      <trkpt lat="33.77778" lon="77.5839">
        <ele>5113</ele>
        <time>2015-09-04T10:22:57Z</time>
      </trkpt>
      <trkpt lat="33.77782" lon="77.58396">
        <ele>5112.2</ele>
        <time>2015-09-04T10:23:03Z</time>
      </trkpt>
      <trkpt lat="33.77783" lon="77.58396">
        <ele>5112.2</ele>
        <time>2015-09-04T10:23:04Z</time>
      </trkpt>
      <trkpt lat="33.77784" lon="77.58399">
        <ele>5111.8</ele>
        <time>2015-09-04T10:23:09Z</time>
      </trkpt>
      <trkpt lat="33.77787" lon="77.58402">
        <ele>5111</ele>
        <time>2015-09-04T10:23:16Z</time>
      </trkpt>
      <trkpt lat="33.77788" lon="77.58405">
        <ele>5110.6</ele>
        <time>2015-09-04T10:23:20Z</time>
      </trkpt>
      <trkpt lat="33.77792" lon="77.58407">
        <ele>5110.2</ele>
        <time>2015-09-04T10:23:25Z</time>
      </trkpt>
      <trkpt lat="33.77793" lon="77.58409">
        <ele>5110</ele>
        <time>2015-09-04T10:23:27Z</time>
      </trkpt>
      <trkpt lat="33.77794" lon="77.5841">
        <ele>5109.8</ele>
        <time>2015-09-04T10:23:29Z</time>
      </trkpt>
      <trkpt lat="33.77797" lon="77.58413">
        <ele>5108.8</ele>
        <time>2015-09-04T10:23:34Z</time>
      </trkpt>
      <trkpt lat="33.77798" lon="77.58419">
        <ele>5108.4</ele>
        <time>2015-09-04T10:23:39Z</time>
      </trkpt>
      <trkpt lat="33.77802" lon="77.58425">
        <ele>5107.8</ele>
        <time>2015-09-04T10:23:47Z</time>
      </trkpt>
      <trkpt lat="33.77806" lon="77.58428">
        <ele>5107.2</ele>
        <time>2015-09-04T10:23:52Z</time>
      </trkpt>
      <trkpt lat="33.77809" lon="77.58431">
        <ele>5106.8</ele>
        <time>2015-09-04T10:23:55Z</time>
      </trkpt>
      <trkpt lat="33.77809" lon="77.58432">
        <ele>5106.6</ele>
        <time>2015-09-04T10:23:56Z</time>
      </trkpt>
      <trkpt lat="33.7781" lon="77.58432">
        <ele>5106.4</ele>
        <time>2015-09-04T10:23:57Z</time>
      </trkpt>
      <trkpt lat="33.77812" lon="77.58435">
        <ele>5106</ele>
        <time>2015-09-04T10:24:00Z</time>
      </trkpt>
      <trkpt lat="33.77813" lon="77.58437">
        <ele>5106</ele>
        <time>2015-09-04T10:24:03Z</time>
      </trkpt>
      <trkpt lat="33.77814" lon="77.58445">
        <ele>5105.6</ele>
        <time>2015-09-04T10:24:11Z</time>
      </trkpt>
      <trkpt lat="33.77816" lon="77.58448">
        <ele>5105.6</ele>
        <time>2015-09-04T10:24:14Z</time>
      </trkpt>
      <trkpt lat="33.77817" lon="77.58458">
        <ele>5104.6</ele>
        <time>2015-09-04T10:24:27Z</time>
      </trkpt>
      <trkpt lat="33.7782" lon="77.58466">
        <ele>5103.4</ele>
        <time>2015-09-04T10:24:39Z</time>
      </trkpt>
      <trkpt lat="33.77822" lon="77.58475">
        <ele>5102.4</ele>
        <time>2015-09-04T10:24:57Z</time>
      </trkpt>
      <trkpt lat="33.77825" lon="77.58476">
        <ele>5102.2</ele>
        <time>2015-09-04T10:24:59Z</time>
      </trkpt>
      <trkpt lat="33.77827" lon="77.5848">
        <ele>5101.8</ele>
        <time>2015-09-04T10:25:04Z</time>
      </trkpt>
      <trkpt lat="33.77828" lon="77.58481">
        <ele>5101.6</ele>
        <time>2015-09-04T10:25:06Z</time>
      </trkpt>
      <trkpt lat="33.77826" lon="77.58482">
        <ele>5101.4</ele>
        <time>2015-09-04T10:25:07Z</time>
      </trkpt>
      <trkpt lat="33.77826" lon="77.58482">
        <ele>5101.4</ele>
        <time>2015-09-04T10:25:08Z</time>
      </trkpt>
      <trkpt lat="33.7783" lon="77.58484">
        <ele>5101.2</ele>
        <time>2015-09-04T10:25:12Z</time>
      </trkpt>
      <trkpt lat="33.77832" lon="77.58485">
        <ele>5100.4</ele>
        <time>2015-09-04T10:25:16Z</time>
      </trkpt>
      <trkpt lat="33.77831" lon="77.5849">
        <ele>5100.4</ele>
        <time>2015-09-04T10:25:22Z</time>
      </trkpt>
      <trkpt lat="33.77829" lon="77.58501">
        <ele>5099.4</ele>
        <time>2015-09-04T10:25:52Z</time>
      </trkpt>
      <trkpt lat="33.77828" lon="77.58515">
        <ele>5098.4</ele>
        <time>2015-09-04T10:26:08Z</time>
      </trkpt>
      <trkpt lat="33.7783" lon="77.58521">
        <ele>5097.2</ele>
        <time>2015-09-04T10:26:20Z</time>
      </trkpt>
      <trkpt lat="33.77832" lon="77.58522">
        <ele>5097</ele>
        <time>2015-09-04T10:26:22Z</time>
      </trkpt>
      <trkpt lat="33.77835" lon="77.58526">
        <ele>5096.6</ele>
        <time>2015-09-04T10:26:25Z</time>
      </trkpt>
      <trkpt lat="33.77836" lon="77.5853">
        <ele>5096.6</ele>
        <time>2015-09-04T10:26:29Z</time>
      </trkpt>
      <trkpt lat="33.77835" lon="77.58534">
        <ele>5096.2</ele>
        <time>2015-09-04T10:26:35Z</time>
      </trkpt>
      <trkpt lat="33.77836" lon="77.58541">
        <ele>5095</ele>
        <time>2015-09-04T10:26:50Z</time>
      </trkpt>
      <trkpt lat="33.77838" lon="77.58542">
        <ele>5094.8</ele>
        <time>2015-09-04T10:26:52Z</time>
      </trkpt>
      <trkpt lat="33.7784" lon="77.58544">
        <ele>5094.6</ele>
        <time>2015-09-04T10:26:55Z</time>
      </trkpt>
      <trkpt lat="33.77844" lon="77.5855">
        <ele>5094</ele>
        <time>2015-09-04T10:27:06Z</time>
      </trkpt>
      <trkpt lat="33.77847" lon="77.58555">
        <ele>5092.8</ele>
        <time>2015-09-04T10:27:24Z</time>
      </trkpt>
      <trkpt lat="33.77852" lon="77.58556">
        <ele>5091.8</ele>
        <time>2015-09-04T10:27:32Z</time>
      </trkpt>
      <trkpt lat="33.77859" lon="77.58558">
        <ele>5091.4</ele>
        <time>2015-09-04T10:27:40Z</time>
      </trkpt>
      <trkpt lat="33.7786" lon="77.5856">
        <ele>5091.4</ele>
        <time>2015-09-04T10:27:43Z</time>
      </trkpt>
      <trkpt lat="33.77861" lon="77.58561">
        <ele>5090.8</ele>
        <time>2015-09-04T10:27:50Z</time>
      </trkpt>
      <trkpt lat="33.77867" lon="77.58565">
        <ele>5090</ele>
        <time>2015-09-04T10:28:00Z</time>
      </trkpt>
      <trkpt lat="33.77868" lon="77.58567">
        <ele>5089.8</ele>
        <time>2015-09-04T10:28:01Z</time>
      </trkpt>
      <trkpt lat="33.77873" lon="77.58571">
        <ele>5089.2</ele>
        <time>2015-09-04T10:28:08Z</time>
      </trkpt>
      <trkpt lat="33.77875" lon="77.58572">
        <ele>5088.6</ele>
        <time>2015-09-04T10:28:12Z</time>
      </trkpt>
      <trkpt lat="33.77879" lon="77.58579">
        <ele>5087.6</ele>
        <time>2015-09-04T10:28:25Z</time>
      </trkpt>
      <trkpt lat="33.77885" lon="77.58585">
        <ele>5086.4</ele>
        <time>2015-09-04T10:28:35Z</time>
      </trkpt>
      <trkpt lat="33.77891" lon="77.58591">
        <ele>5085.4</ele>
        <time>2015-09-04T10:28:41Z</time>
      </trkpt>
      <trkpt lat="33.77892" lon="77.58592">
        <ele>5085</ele>
        <time>2015-09-04T10:28:43Z</time>
      </trkpt>
      <trkpt lat="33.77896" lon="77.58595">
        <ele>5084.8</ele>
        <time>2015-09-04T10:28:47Z</time>
      </trkpt>
      <trkpt lat="33.77901" lon="77.58597">
        <ele>5084.4</ele>
        <time>2015-09-04T10:28:53Z</time>
      </trkpt>
      <trkpt lat="33.77906" lon="77.58603">
        <ele>5083.2</ele>
        <time>2015-09-04T10:29:02Z</time>
      </trkpt>
      <trkpt lat="33.77912" lon="77.5861">
        <ele>5082.2</ele>
        <time>2015-09-04T10:29:30Z</time>
      </trkpt>
      <trkpt lat="33.77921" lon="77.58618">
        <ele>5081.4</ele>
        <time>2015-09-04T10:29:42Z</time>
      </trkpt>
      <trkpt lat="33.7792" lon="77.5862">
        <ele>5081.2</ele>
        <time>2015-09-04T10:29:44Z</time>
      </trkpt>
      <trkpt lat="33.7792" lon="77.58623">
        <ele>5080.8</ele>
        <time>2015-09-04T10:29:47Z</time>
      </trkpt>
      <trkpt lat="33.77922" lon="77.58626">
        <ele>5080.2</ele>
        <time>2015-09-04T10:29:54Z</time>
      </trkpt>
      <trkpt lat="33.77926" lon="77.58629">
        <ele>5079</ele>
        <time>2015-09-04T10:30:02Z</time>
      </trkpt>
      <trkpt lat="33.77933" lon="77.58635">
        <ele>5077.8</ele>
        <time>2015-09-04T10:30:12Z</time>
      </trkpt>
      <trkpt lat="33.7794" lon="77.5864">
        <ele>5077</ele>
        <time>2015-09-04T10:30:20Z</time>
      </trkpt>
      <trkpt lat="33.77941" lon="77.5864">
        <ele>5076.8</ele>
        <time>2015-09-04T10:30:21Z</time>
      </trkpt>
      <trkpt lat="33.77943" lon="77.58644">
        <ele>5076.4</ele>
        <time>2015-09-04T10:30:25Z</time>
      </trkpt>
      <trkpt lat="33.77944" lon="77.58649">
        <ele>5075.8</ele>
        <time>2015-09-04T10:30:31Z</time>
      </trkpt>
      <trkpt lat="33.77946" lon="77.58649">
        <ele>5075.6</ele>
        <time>2015-09-04T10:30:33Z</time>
      </trkpt>
      <trkpt lat="33.77947" lon="77.5865">
        <ele>5075.2</ele>
        <time>2015-09-04T10:30:35Z</time>
      </trkpt>
      <trkpt lat="33.77948" lon="77.58653">
        <ele>5074.8</ele>
        <time>2015-09-04T10:30:40Z</time>
      </trkpt>
      <trkpt lat="33.77954" lon="77.58661">
        <ele>5073.6</ele>
        <time>2015-09-04T10:30:50Z</time>
      </trkpt>
      <trkpt lat="33.77958" lon="77.58667">
        <ele>5072.6</ele>
        <time>2015-09-04T10:30:59Z</time>
      </trkpt>
      <trkpt lat="33.77962" lon="77.58668">
        <ele>5071.4</ele>
        <time>2015-09-04T10:31:06Z</time>
      </trkpt>
      <trkpt lat="33.77964" lon="77.58668">
        <ele>5071.4</ele>
        <time>2015-09-04T10:31:08Z</time>
      </trkpt>
      <trkpt lat="33.77973" lon="77.58669">
        <ele>5070.6</ele>
        <time>2015-09-04T10:31:17Z</time>
      </trkpt>
      <trkpt lat="33.77973" lon="77.58669">
        <ele>5070.4</ele>
        <time>2015-09-04T10:31:18Z</time>
      </trkpt>
      <trkpt lat="33.77976" lon="77.58671">
        <ele>5069.4</ele>
        <time>2015-09-04T10:31:45Z</time>
      </trkpt>
      <trkpt lat="33.77976" lon="77.58668">
        <ele>5070.6</ele>
        <time>2015-09-04T10:32:08Z</time>
      </trkpt>
      <trkpt lat="33.77973" lon="77.58679">
        <ele>5069.4</ele>
        <time>2015-09-04T10:32:32Z</time>
      </trkpt>
      <trkpt lat="33.77974" lon="77.5868">
        <ele>5069.2</ele>
        <time>2015-09-04T10:32:34Z</time>
      </trkpt>
      <trkpt lat="33.77976" lon="77.58685">
        <ele>5068.4</ele>
        <time>2015-09-04T10:32:41Z</time>
      </trkpt>
      <trkpt lat="33.77978" lon="77.5869">
        <ele>5067.2</ele>
        <time>2015-09-04T10:32:50Z</time>
      </trkpt>
      <trkpt lat="33.77984" lon="77.58694">
        <ele>5066.2</ele>
        <time>2015-09-04T10:33:00Z</time>
      </trkpt>
      <trkpt lat="33.77989" lon="77.58696">
        <ele>5065.2</ele>
        <time>2015-09-04T10:33:07Z</time>
      </trkpt>
      <trkpt lat="33.77992" lon="77.58699">
        <ele>5064.2</ele>
        <time>2015-09-04T10:33:12Z</time>
      </trkpt>
      <trkpt lat="33.77992" lon="77.58699">
        <ele>5064</ele>
        <time>2015-09-04T10:33:13Z</time>
      </trkpt>
      <trkpt lat="33.78003" lon="77.58704">
        <ele>5063</ele>
        <time>2015-09-04T10:33:28Z</time>
      </trkpt>
      <trkpt lat="33.78011" lon="77.58702">
        <ele>5062</ele>
        <time>2015-09-04T10:33:40Z</time>
      </trkpt>
      <trkpt lat="33.78016" lon="77.58702">
        <ele>5061.6</ele>
        <time>2015-09-04T10:33:45Z</time>
      </trkpt>
      <trkpt lat="33.78018" lon="77.58702">
        <ele>5061.4</ele>
        <time>2015-09-04T10:33:47Z</time>
      </trkpt>
      <trkpt lat="33.78025" lon="77.587">
        <ele>5061</ele>
        <time>2015-09-04T10:34:15Z</time>
      </trkpt>
      <trkpt lat="33.78025" lon="77.58699">
        <ele>5059.8</ele>
        <time>2015-09-04T10:34:55Z</time>
      </trkpt>
      <trkpt lat="33.78026" lon="77.58697">
        <ele>5058.8</ele>
        <time>2015-09-04T10:36:39Z</time>
      </trkpt>
      <trkpt lat="33.78028" lon="77.58702">
        <ele>5057.8</ele>
        <time>2015-09-04T10:39:59Z</time>
      </trkpt>
      <trkpt lat="33.78031" lon="77.58708">
        <ele>5056.8</ele>
        <time>2015-09-04T10:40:24Z</time>
      </trkpt>
      <trkpt lat="33.78039" lon="77.5871">
        <ele>5055.6</ele>
        <time>2015-09-04T10:40:32Z</time>
      </trkpt>
      <trkpt lat="33.78046" lon="77.58713">
        <ele>5054.6</ele>
        <time>2015-09-04T10:40:40Z</time>
      </trkpt>
      <trkpt lat="33.78052" lon="77.58715">
        <ele>5053.4</ele>
        <time>2015-09-04T10:40:49Z</time>
      </trkpt>
      <trkpt lat="33.78054" lon="77.58722">
        <ele>5052.2</ele>
        <time>2015-09-04T10:41:00Z</time>
      </trkpt>
      <trkpt lat="33.78057" lon="77.58726">
        <ele>5051.2</ele>
        <time>2015-09-04T10:41:08Z</time>
      </trkpt>
      <trkpt lat="33.78061" lon="77.58731">
        <ele>5050.2</ele>
        <time>2015-09-04T10:41:16Z</time>
      </trkpt>
      <trkpt lat="33.78066" lon="77.58736">
        <ele>5049.6</ele>
        <time>2015-09-04T10:41:24Z</time>
      </trkpt>
      <trkpt lat="33.78068" lon="77.58739">
        <ele>5049.2</ele>
        <time>2015-09-04T10:41:29Z</time>
      </trkpt>
      <trkpt lat="33.78071" lon="77.58745">
        <ele>5048.2</ele>
        <time>2015-09-04T10:41:36Z</time>
      </trkpt>
      <trkpt lat="33.78077" lon="77.58749">
        <ele>5047.2</ele>
        <time>2015-09-04T10:41:43Z</time>
      </trkpt>
      <trkpt lat="33.78081" lon="77.5875">
        <ele>5046.6</ele>
        <time>2015-09-04T10:41:47Z</time>
      </trkpt>
      <trkpt lat="33.78083" lon="77.58751">
        <ele>5046</ele>
        <time>2015-09-04T10:41:50Z</time>
      </trkpt>
      <trkpt lat="33.7809" lon="77.58759">
        <ele>5044.8</ele>
        <time>2015-09-04T10:42:02Z</time>
      </trkpt>
      <trkpt lat="33.78094" lon="77.58766">
        <ele>5043.8</ele>
        <time>2015-09-04T10:42:12Z</time>
      </trkpt>
      <trkpt lat="33.78099" lon="77.58768">
        <ele>5042.8</ele>
        <time>2015-09-04T10:42:19Z</time>
      </trkpt>
      <trkpt lat="33.78103" lon="77.58773">
        <ele>5042.4</ele>
        <time>2015-09-04T10:42:25Z</time>
      </trkpt>
      <trkpt lat="33.78104" lon="77.58777">
        <ele>5041.8</ele>
        <time>2015-09-04T10:42:30Z</time>
      </trkpt>
      <trkpt lat="33.78106" lon="77.5878">
        <ele>5041.4</ele>
        <time>2015-09-04T10:42:33Z</time>
      </trkpt>
      <trkpt lat="33.78106" lon="77.58783">
        <ele>5040.6</ele>
        <time>2015-09-04T10:42:38Z</time>
      </trkpt>
      <trkpt lat="33.78116" lon="77.58789">
        <ele>5039.6</ele>
        <time>2015-09-04T10:42:45Z</time>
      </trkpt>
      <trkpt lat="33.78116" lon="77.58795">
        <ele>5038.6</ele>
        <time>2015-09-04T10:42:57Z</time>
      </trkpt>
      <trkpt lat="33.78116" lon="77.58797">
        <ele>5037.4</ele>
        <time>2015-09-04T10:43:04Z</time>
      </trkpt>
      <trkpt lat="33.7812" lon="77.58798">
        <ele>5036.8</ele>
        <time>2015-09-04T10:43:09Z</time>
      </trkpt>
      <trkpt lat="33.78125" lon="77.58799">
        <ele>5036.6</ele>
        <time>2015-09-04T10:43:15Z</time>
      </trkpt>
      <trkpt lat="33.78126" lon="77.58798">
        <ele>5036.4</ele>
        <time>2015-09-04T10:43:17Z</time>
      </trkpt>
      <trkpt lat="33.78135" lon="77.58802">
        <ele>5035.4</ele>
        <time>2015-09-04T10:43:31Z</time>
      </trkpt>
      <trkpt lat="33.7814" lon="77.58805">
        <ele>5034.4</ele>
        <time>2015-09-04T10:43:37Z</time>
      </trkpt>
      <trkpt lat="33.78142" lon="77.58805">
        <ele>5034.2</ele>
        <time>2015-09-04T10:43:39Z</time>
      </trkpt>
      <trkpt lat="33.78148" lon="77.5881">
        <ele>5033.2</ele>
        <time>2015-09-04T10:43:49Z</time>
      </trkpt>
      <trkpt lat="33.78153" lon="77.58819">
        <ele>5032.2</ele>
        <time>2015-09-04T10:44:00Z</time>
      </trkpt>
      <trkpt lat="33.78157" lon="77.58822">
        <ele>5031.2</ele>
        <time>2015-09-04T10:44:09Z</time>
      </trkpt>
      <trkpt lat="33.78161" lon="77.58828">
        <ele>5030</ele>
        <time>2015-09-04T10:44:18Z</time>
      </trkpt>
      <trkpt lat="33.78167" lon="77.5883">
        <ele>5029</ele>
        <time>2015-09-04T10:44:28Z</time>
      </trkpt>
      <trkpt lat="33.78169" lon="77.58833">
        <ele>5028.6</ele>
        <time>2015-09-04T10:44:31Z</time>
      </trkpt>
      <trkpt lat="33.78171" lon="77.58839">
        <ele>5027.8</ele>
        <time>2015-09-04T10:44:40Z</time>
      </trkpt>
      <trkpt lat="33.78174" lon="77.58843">
        <ele>5026.6</ele>
        <time>2015-09-04T10:44:45Z</time>
      </trkpt>
      <trkpt lat="33.78176" lon="77.58845">
        <ele>5026</ele>
        <time>2015-09-04T10:44:48Z</time>
      </trkpt>
      <trkpt lat="33.78178" lon="77.58846">
        <ele>5025.6</ele>
        <time>2015-09-04T10:44:50Z</time>
      </trkpt>
      <trkpt lat="33.78179" lon="77.58849">
        <ele>5024.8</ele>
        <time>2015-09-04T10:44:53Z</time>
      </trkpt>
      <trkpt lat="33.7818" lon="77.58851">
        <ele>5024.4</ele>
        <time>2015-09-04T10:44:56Z</time>
      </trkpt>
      <trkpt lat="33.78183" lon="77.58855">
        <ele>5023.8</ele>
        <time>2015-09-04T10:45:01Z</time>
      </trkpt>
      <trkpt lat="33.78185" lon="77.58857">
        <ele>5023.4</ele>
        <time>2015-09-04T10:45:05Z</time>
      </trkpt>
      <trkpt lat="33.78186" lon="77.58857">
        <ele>5023.2</ele>
        <time>2015-09-04T10:45:06Z</time>
      </trkpt>
      <trkpt lat="33.78188" lon="77.58857">
        <ele>5022.8</ele>
        <time>2015-09-04T10:45:08Z</time>
      </trkpt>
      <trkpt lat="33.7819" lon="77.5886">
        <ele>5022.4</ele>
        <time>2015-09-04T10:45:14Z</time>
      </trkpt>
      <trkpt lat="33.78194" lon="77.58864">
        <ele>5021.4</ele>
        <time>2015-09-04T10:45:22Z</time>
      </trkpt>
      <trkpt lat="33.78199" lon="77.58868">
        <ele>5020.8</ele>
        <time>2015-09-04T10:45:31Z</time>
      </trkpt>
      <trkpt lat="33.782" lon="77.5887">
        <ele>5020.4</ele>
        <time>2015-09-04T10:45:33Z</time>
      </trkpt>
      <trkpt lat="33.782" lon="77.58871">
        <ele>5020.2</ele>
        <time>2015-09-04T10:45:34Z</time>
      </trkpt>
      <trkpt lat="33.78203" lon="77.58876">
        <ele>5019.2</ele>
        <time>2015-09-04T10:45:41Z</time>
      </trkpt>
      <trkpt lat="33.78208" lon="77.58878">
        <ele>5018</ele>
        <time>2015-09-04T10:45:50Z</time>
      </trkpt>
      <trkpt lat="33.78211" lon="77.58883">
        <ele>5017</ele>
        <time>2015-09-04T10:45:59Z</time>
      </trkpt>
      <trkpt lat="33.78216" lon="77.58888">
        <ele>5016</ele>
        <time>2015-09-04T10:46:08Z</time>
      </trkpt>
      <trkpt lat="33.7822" lon="77.58892">
        <ele>5015</ele>
        <time>2015-09-04T10:46:15Z</time>
      </trkpt>
      <trkpt lat="33.78224" lon="77.58895">
        <ele>5013.8</ele>
        <time>2015-09-04T10:46:22Z</time>
      </trkpt>
      <trkpt lat="33.7823" lon="77.58901">
        <ele>5012.8</ele>
        <time>2015-09-04T10:46:30Z</time>
      </trkpt>
      <trkpt lat="33.78232" lon="77.58904">
        <ele>5011.6</ele>
        <time>2015-09-04T10:46:36Z</time>
      </trkpt>
      <trkpt lat="33.78234" lon="77.58906">
        <ele>5010.6</ele>
        <time>2015-09-04T10:46:41Z</time>
      </trkpt>
      <trkpt lat="33.7824" lon="77.58909">
        <ele>5009.6</ele>
        <time>2015-09-04T10:46:48Z</time>
      </trkpt>
      <trkpt lat="33.78243" lon="77.58912">
        <ele>5008.6</ele>
        <time>2015-09-04T10:46:54Z</time>
      </trkpt>
      <trkpt lat="33.78246" lon="77.58915">
        <ele>5007.4</ele>
        <time>2015-09-04T10:47:01Z</time>
      </trkpt>
      <trkpt lat="33.7825" lon="77.58919">
        <ele>5006.4</ele>
        <time>2015-09-04T10:47:07Z</time>
      </trkpt>
      <trkpt lat="33.78255" lon="77.58922">
        <ele>5005.4</ele>
        <time>2015-09-04T10:47:16Z</time>
      </trkpt>
      <trkpt lat="33.78256" lon="77.58923">
        <ele>5005.2</ele>
        <time>2015-09-04T10:47:17Z</time>
      </trkpt>
      <trkpt lat="33.78257" lon="77.58924">
        <ele>5004.8</ele>
        <time>2015-09-04T10:47:19Z</time>
      </trkpt>
      <trkpt lat="33.7826" lon="77.58926">
        <ele>5004.2</ele>
        <time>2015-09-04T10:47:23Z</time>
      </trkpt>
      <trkpt lat="33.7826" lon="77.58926">
        <ele>5003.8</ele>
        <time>2015-09-04T10:47:25Z</time>
      </trkpt>
      <trkpt lat="33.78263" lon="77.58929">
        <ele>5003.2</ele>
        <time>2015-09-04T10:47:31Z</time>
      </trkpt>
      <trkpt lat="33.78267" lon="77.58929">
        <ele>5002</ele>
        <time>2015-09-04T10:47:35Z</time>
      </trkpt>
      <trkpt lat="33.78269" lon="77.58933">
        <ele>5002</ele>
        <time>2015-09-04T10:47:55Z</time>
      </trkpt>
      <trkpt lat="33.78272" lon="77.58936">
        <ele>5000.8</ele>
        <time>2015-09-04T10:47:59Z</time>
      </trkpt>
      <trkpt lat="33.78274" lon="77.58939">
        <ele>4999.8</ele>
        <time>2015-09-04T10:48:04Z</time>
      </trkpt>
      <trkpt lat="33.78273" lon="77.58944">
        <ele>4998.8</ele>
        <time>2015-09-04T10:48:11Z</time>
      </trkpt>
      <trkpt lat="33.7828" lon="77.58946">
        <ele>4997.6</ele>
        <time>2015-09-04T10:48:18Z</time>
      </trkpt>
      <trkpt lat="33.78285" lon="77.58949">
        <ele>4996.6</ele>
        <time>2015-09-04T10:48:27Z</time>
      </trkpt>
      <trkpt lat="33.78289" lon="77.58951">
        <ele>4995.6</ele>
        <time>2015-09-04T10:48:33Z</time>
      </trkpt>
      <trkpt lat="33.78292" lon="77.58952">
        <ele>4994.4</ele>
        <time>2015-09-04T10:48:38Z</time>
      </trkpt>
      <trkpt lat="33.78293" lon="77.58953">
        <ele>4994.2</ele>
        <time>2015-09-04T10:48:39Z</time>
      </trkpt>
      <trkpt lat="33.78298" lon="77.58955">
        <ele>4993.6</ele>
        <time>2015-09-04T10:48:45Z</time>
      </trkpt>
      <trkpt lat="33.78298" lon="77.58955">
        <ele>4993.4</ele>
        <time>2015-09-04T10:48:47Z</time>
      </trkpt>
      <trkpt lat="33.78301" lon="77.58956">
        <ele>4992.2</ele>
        <time>2015-09-04T10:48:54Z</time>
      </trkpt>
      <trkpt lat="33.78308" lon="77.58957">
        <ele>4991.2</ele>
        <time>2015-09-04T10:49:02Z</time>
      </trkpt>
      <trkpt lat="33.78309" lon="77.58957">
        <ele>4991.2</ele>
        <time>2015-09-04T10:49:03Z</time>
      </trkpt>
      <trkpt lat="33.78309" lon="77.58958">
        <ele>4991</ele>
        <time>2015-09-04T10:49:04Z</time>
      </trkpt>
      <trkpt lat="33.78313" lon="77.58961">
        <ele>4990</ele>
        <time>2015-09-04T10:49:14Z</time>
      </trkpt>
      <trkpt lat="33.78318" lon="77.58962">
        <ele>4989</ele>
        <time>2015-09-04T10:49:21Z</time>
      </trkpt>
      <trkpt lat="33.78319" lon="77.58964">
        <ele>4988.4</ele>
        <time>2015-09-04T10:49:43Z</time>
      </trkpt>
      <trkpt lat="33.78319" lon="77.58965">
        <ele>4988.4</ele>
        <time>2015-09-04T10:49:45Z</time>
      </trkpt>
      <trkpt lat="33.7832" lon="77.58966">
        <ele>4988</ele>
        <time>2015-09-04T10:49:48Z</time>
      </trkpt>
      <trkpt lat="33.78323" lon="77.58969">
        <ele>4986.8</ele>
        <time>2015-09-04T10:49:53Z</time>
      </trkpt>
      <trkpt lat="33.78325" lon="77.58972">
        <ele>4985.8</ele>
        <time>2015-09-04T10:49:59Z</time>
      </trkpt>
      <trkpt lat="33.78328" lon="77.58973">
        <ele>4985.6</ele>
        <time>2015-09-04T10:50:02Z</time>
      </trkpt>
      <trkpt lat="33.78331" lon="77.58976">
        <ele>4984.8</ele>
        <time>2015-09-04T10:50:10Z</time>
      </trkpt>
      <trkpt lat="33.78333" lon="77.58981">
        <ele>4983.6</ele>
        <time>2015-09-04T10:50:16Z</time>
      </trkpt>
      <trkpt lat="33.78335" lon="77.58985">
        <ele>4982.6</ele>
        <time>2015-09-04T10:50:23Z</time>
      </trkpt>
      <trkpt lat="33.78338" lon="77.58987">
        <ele>4981.4</ele>
        <time>2015-09-04T10:50:30Z</time>
      </trkpt>
      <trkpt lat="33.78341" lon="77.58991">
        <ele>4980.4</ele>
        <time>2015-09-04T10:50:41Z</time>
      </trkpt>
      <trkpt lat="33.78344" lon="77.58993">
        <ele>4979.4</ele>
        <time>2015-09-04T10:50:51Z</time>
      </trkpt>
      <trkpt lat="33.78347" lon="77.58993">
        <ele>4978.4</ele>
        <time>2015-09-04T10:51:02Z</time>
      </trkpt>
      <trkpt lat="33.78353" lon="77.58988">
        <ele>4979.4</ele>
        <time>2015-09-04T10:51:47Z</time>
      </trkpt>
      <trkpt lat="33.78351" lon="77.5899">
        <ele>4978.4</ele>
        <time>2015-09-04T10:52:43Z</time>
      </trkpt>
      <trkpt lat="33.78351" lon="77.58992">
        <ele>4977.2</ele>
        <time>2015-09-04T10:52:47Z</time>
      </trkpt>
      <trkpt lat="33.78356" lon="77.58999">
        <ele>4976.2</ele>
        <time>2015-09-04T10:52:55Z</time>
      </trkpt>
      <trkpt lat="33.78358" lon="77.59002">
        <ele>4975.4</ele>
        <time>2015-09-04T10:52:59Z</time>
      </trkpt>
      <trkpt lat="33.78359" lon="77.59002">
        <ele>4975.2</ele>
        <time>2015-09-04T10:53:00Z</time>
      </trkpt>
      <trkpt lat="33.78362" lon="77.59004">
        <ele>4974</ele>
        <time>2015-09-04T10:53:05Z</time>
      </trkpt>
      <trkpt lat="33.78364" lon="77.59007">
        <ele>4973</ele>
        <time>2015-09-04T10:53:10Z</time>
      </trkpt>
      <trkpt lat="33.78366" lon="77.59009">
        <ele>4972</ele>
        <time>2015-09-04T10:53:14Z</time>
      </trkpt>
      <trkpt lat="33.78369" lon="77.59011">
        <ele>4971</ele>
        <time>2015-09-04T10:53:19Z</time>
      </trkpt>
      <trkpt lat="33.78371" lon="77.59012">
        <ele>4970.6</ele>
        <time>2015-09-04T10:53:22Z</time>
      </trkpt>
      <trkpt lat="33.78373" lon="77.59013">
        <ele>4969.8</ele>
        <time>2015-09-04T10:53:26Z</time>
      </trkpt>
      <trkpt lat="33.78377" lon="77.59015">
        <ele>4968.8</ele>
        <time>2015-09-04T10:53:31Z</time>
      </trkpt>
      <trkpt lat="33.78379" lon="77.59017">
        <ele>4967.8</ele>
        <time>2015-09-04T10:53:44Z</time>
      </trkpt>
      <trkpt lat="33.78384" lon="77.59022">
        <ele>4966.8</ele>
        <time>2015-09-04T10:54:05Z</time>
      </trkpt>
      <trkpt lat="33.78384" lon="77.59027">
        <ele>4965.6</ele>
        <time>2015-09-04T10:54:11Z</time>
      </trkpt>
      <trkpt lat="33.78382" lon="77.5903">
        <ele>4964.4</ele>
        <time>2015-09-04T10:54:16Z</time>
      </trkpt>
      <trkpt lat="33.78383" lon="77.59031">
        <ele>4963.4</ele>
        <time>2015-09-04T10:54:21Z</time>
      </trkpt>
      <trkpt lat="33.78383" lon="77.59034">
        <ele>4962.4</ele>
        <time>2015-09-04T10:54:26Z</time>
      </trkpt>
      <trkpt lat="33.78382" lon="77.59035">
        <ele>4961.4</ele>
        <time>2015-09-04T10:54:32Z</time>
      </trkpt>
      <trkpt lat="33.78382" lon="77.59038">
        <ele>4960.2</ele>
        <time>2015-09-04T10:54:38Z</time>
      </trkpt>
      <trkpt lat="33.78384" lon="77.59041">
        <ele>4959</ele>
        <time>2015-09-04T10:54:43Z</time>
      </trkpt>
      <trkpt lat="33.78389" lon="77.59045">
        <ele>4958</ele>
        <time>2015-09-04T10:54:53Z</time>
      </trkpt>
      <trkpt lat="33.78392" lon="77.59048">
        <ele>4956.8</ele>
        <time>2015-09-04T10:54:59Z</time>
      </trkpt>
      <trkpt lat="33.78394" lon="77.59054">
        <ele>4955.8</ele>
        <time>2015-09-04T10:55:06Z</time>
      </trkpt>
      <trkpt lat="33.78395" lon="77.59061">
        <ele>4954.6</ele>
        <time>2015-09-04T10:55:14Z</time>
      </trkpt>
      <trkpt lat="33.78393" lon="77.59067">
        <ele>4953.6</ele>
        <time>2015-09-04T10:55:20Z</time>
      </trkpt>
      <trkpt lat="33.78393" lon="77.59067">
        <ele>4953.4</ele>
        <time>2015-09-04T10:55:21Z</time>
      </trkpt>
      <trkpt lat="33.78393" lon="77.59081">
        <ele>4952.6</ele>
        <time>2015-09-04T10:55:38Z</time>
      </trkpt>
      <trkpt lat="33.78391" lon="77.59085">
        <ele>4951.6</ele>
        <time>2015-09-04T10:55:44Z</time>
      </trkpt>
      <trkpt lat="33.78391" lon="77.59087">
        <ele>4951.6</ele>
        <time>2015-09-04T10:55:46Z</time>
      </trkpt>
      <trkpt lat="33.78395" lon="77.59093">
        <ele>4950.4</ele>
        <time>2015-09-04T10:55:56Z</time>
      </trkpt>
      <trkpt lat="33.78397" lon="77.59096">
        <ele>4949.2</ele>
        <time>2015-09-04T10:56:03Z</time>
      </trkpt>
      <trkpt lat="33.78401" lon="77.59097">
        <ele>4948</ele>
        <time>2015-09-04T10:56:10Z</time>
      </trkpt>
      <trkpt lat="33.78404" lon="77.59098">
        <ele>4947</ele>
        <time>2015-09-04T10:56:14Z</time>
      </trkpt>
      <trkpt lat="33.78406" lon="77.59103">
        <ele>4945.8</ele>
        <time>2015-09-04T10:56:20Z</time>
      </trkpt>
      <trkpt lat="33.78408" lon="77.59105">
        <ele>4944.6</ele>
        <time>2015-09-04T10:56:26Z</time>
      </trkpt>
      <trkpt lat="33.78411" lon="77.59105">
        <ele>4943.6</ele>
        <time>2015-09-04T10:56:31Z</time>
      </trkpt>
      <trkpt lat="33.78414" lon="77.59109">
        <ele>4942.4</ele>
        <time>2015-09-04T10:56:36Z</time>
      </trkpt>
      <trkpt lat="33.78415" lon="77.5911">
        <ele>4942.2</ele>
        <time>2015-09-04T10:56:37Z</time>
      </trkpt>
      <trkpt lat="33.78418" lon="77.59112">
        <ele>4941.6</ele>
        <time>2015-09-04T10:56:40Z</time>
      </trkpt>
      <trkpt lat="33.78419" lon="77.59113">
        <ele>4941.2</ele>
        <time>2015-09-04T10:56:42Z</time>
      </trkpt>
      <trkpt lat="33.78421" lon="77.59116">
        <ele>4940.2</ele>
        <time>2015-09-04T10:56:47Z</time>
      </trkpt>
      <trkpt lat="33.78422" lon="77.5912">
        <ele>4939</ele>
        <time>2015-09-04T10:56:53Z</time>
      </trkpt>
      <trkpt lat="33.78423" lon="77.5912">
        <ele>4938.8</ele>
        <time>2015-09-04T10:56:54Z</time>
      </trkpt>
      <trkpt lat="33.78425" lon="77.59123">
        <ele>4938</ele>
        <time>2015-09-04T10:57:01Z</time>
      </trkpt>
      <trkpt lat="33.7843" lon="77.59127">
        <ele>4937</ele>
        <time>2015-09-04T10:57:07Z</time>
      </trkpt>
      <trkpt lat="33.78433" lon="77.59127">
        <ele>4935.8</ele>
        <time>2015-09-04T10:57:12Z</time>
      </trkpt>
      <trkpt lat="33.78435" lon="77.5913">
        <ele>4934.6</ele>
        <time>2015-09-04T10:57:20Z</time>
      </trkpt>
      <trkpt lat="33.78441" lon="77.59133">
        <ele>4933.4</ele>
        <time>2015-09-04T10:57:30Z</time>
      </trkpt>
      <trkpt lat="33.78446" lon="77.59133">
        <ele>4932.4</ele>
        <time>2015-09-04T10:57:39Z</time>
      </trkpt>
      <trkpt lat="33.78449" lon="77.59133">
        <ele>4931.2</ele>
        <time>2015-09-04T10:57:47Z</time>
      </trkpt>
      <trkpt lat="33.78451" lon="77.59139">
        <ele>4930.2</ele>
        <time>2015-09-04T10:57:58Z</time>
      </trkpt>
      <trkpt lat="33.78452" lon="77.59145">
        <ele>4929.2</ele>
        <time>2015-09-04T10:58:06Z</time>
      </trkpt>
      <trkpt lat="33.78457" lon="77.59145">
        <ele>4928</ele>
        <time>2015-09-04T10:58:12Z</time>
      </trkpt>
      <trkpt lat="33.78462" lon="77.59148">
        <ele>4927</ele>
        <time>2015-09-04T10:58:21Z</time>
      </trkpt>
      <trkpt lat="33.78463" lon="77.59148">
        <ele>4925.8</ele>
        <time>2015-09-04T10:58:26Z</time>
      </trkpt>
      <trkpt lat="33.78468" lon="77.59154">
        <ele>4924.8</ele>
        <time>2015-09-04T10:58:38Z</time>
      </trkpt>
      <trkpt lat="33.78469" lon="77.59154">
        <ele>4923.8</ele>
        <time>2015-09-04T10:58:43Z</time>
      </trkpt>
      <trkpt lat="33.78472" lon="77.59155">
        <ele>4922.8</ele>
        <time>2015-09-04T10:58:51Z</time>
      </trkpt>
      <trkpt lat="33.78474" lon="77.59154">
        <ele>4922</ele>
        <time>2015-09-04T10:58:55Z</time>
      </trkpt>
      <trkpt lat="33.78474" lon="77.59153">
        <ele>4921.8</ele>
        <time>2015-09-04T10:58:58Z</time>
      </trkpt>
      <trkpt lat="33.78473" lon="77.59159">
        <ele>4921.4</ele>
        <time>2015-09-04T10:59:03Z</time>
      </trkpt>
      <trkpt lat="33.78472" lon="77.59163">
        <ele>4920.6</ele>
        <time>2015-09-04T10:59:09Z</time>
      </trkpt>
      <trkpt lat="33.78474" lon="77.59162">
        <ele>4919.6</ele>
        <time>2015-09-04T10:59:14Z</time>
      </trkpt>
      <trkpt lat="33.78476" lon="77.59164">
        <ele>4919</ele>
        <time>2015-09-04T10:59:17Z</time>
      </trkpt>
      <trkpt lat="33.78479" lon="77.59165">
        <ele>4918.4</ele>
        <time>2015-09-04T10:59:21Z</time>
      </trkpt>
      <trkpt lat="33.78485" lon="77.59164">
        <ele>4917.4</ele>
        <time>2015-09-04T10:59:29Z</time>
      </trkpt>
      <trkpt lat="33.78488" lon="77.59163">
        <ele>4917</ele>
        <time>2015-09-04T10:59:33Z</time>
      </trkpt>
      <trkpt lat="33.78491" lon="77.59164">
        <ele>4916.2</ele>
        <time>2015-09-04T11:00:06Z</time>
      </trkpt>
      <trkpt lat="33.7849" lon="77.59167">
        <ele>4915.2</ele>
        <time>2015-09-04T11:00:11Z</time>
      </trkpt>
      <trkpt lat="33.78494" lon="77.59169">
        <ele>4914.4</ele>
        <time>2015-09-04T11:00:16Z</time>
      </trkpt>
      <trkpt lat="33.78495" lon="77.59169">
        <ele>4914</ele>
        <time>2015-09-04T11:00:17Z</time>
      </trkpt>
      <trkpt lat="33.78496" lon="77.59169">
        <ele>4913.8</ele>
        <time>2015-09-04T11:00:18Z</time>
      </trkpt>
      <trkpt lat="33.78496" lon="77.5917">
        <ele>4913.6</ele>
        <time>2015-09-04T11:00:20Z</time>
      </trkpt>
      <trkpt lat="33.78499" lon="77.59169">
        <ele>4913</ele>
        <time>2015-09-04T11:00:25Z</time>
      </trkpt>
      <trkpt lat="33.78503" lon="77.59176">
        <ele>4911.8</ele>
        <time>2015-09-04T11:00:36Z</time>
      </trkpt>
      <trkpt lat="33.78505" lon="77.59179">
        <ele>4910.8</ele>
        <time>2015-09-04T11:00:49Z</time>
      </trkpt>
      <trkpt lat="33.78505" lon="77.59183">
        <ele>4909.6</ele>
        <time>2015-09-04T11:00:56Z</time>
      </trkpt>
      <trkpt lat="33.78506" lon="77.59182">
        <ele>4908.6</ele>
        <time>2015-09-04T11:00:59Z</time>
      </trkpt>
      <trkpt lat="33.78508" lon="77.59187">
        <ele>4907.4</ele>
        <time>2015-09-04T11:01:05Z</time>
      </trkpt>
      <trkpt lat="33.78512" lon="77.59193">
        <ele>4906.4</ele>
        <time>2015-09-04T11:01:14Z</time>
      </trkpt>
      <trkpt lat="33.78516" lon="77.59196">
        <ele>4905.2</ele>
        <time>2015-09-04T11:01:19Z</time>
      </trkpt>
      <trkpt lat="33.78517" lon="77.592">
        <ele>4904.2</ele>
        <time>2015-09-04T11:01:25Z</time>
      </trkpt>
      <trkpt lat="33.78517" lon="77.59202">
        <ele>4903.2</ele>
        <time>2015-09-04T11:01:31Z</time>
      </trkpt>
      <trkpt lat="33.78519" lon="77.59203">
        <ele>4902</ele>
        <time>2015-09-04T11:01:35Z</time>
      </trkpt>
      <trkpt lat="33.78522" lon="77.59206">
        <ele>4900.8</ele>
        <time>2015-09-04T11:01:45Z</time>
      </trkpt>
      <trkpt lat="33.78523" lon="77.5921">
        <ele>4899.6</ele>
        <time>2015-09-04T11:01:50Z</time>
      </trkpt>
      <trkpt lat="33.78525" lon="77.59216">
        <ele>4898.6</ele>
        <time>2015-09-04T11:01:57Z</time>
      </trkpt>
      <trkpt lat="33.78529" lon="77.59221">
        <ele>4897.4</ele>
        <time>2015-09-04T11:02:03Z</time>
      </trkpt>
      <trkpt lat="33.78531" lon="77.59224">
        <ele>4896.2</ele>
        <time>2015-09-04T11:02:08Z</time>
      </trkpt>
      <trkpt lat="33.78534" lon="77.59227">
        <ele>4895.2</ele>
        <time>2015-09-04T11:02:13Z</time>
      </trkpt>
      <trkpt lat="33.78535" lon="77.59232">
        <ele>4894.2</ele>
        <time>2015-09-04T11:02:19Z</time>
      </trkpt>
      <trkpt lat="33.78538" lon="77.59235">
        <ele>4893</ele>
        <time>2015-09-04T11:02:26Z</time>
      </trkpt>
      <trkpt lat="33.78539" lon="77.59237">
        <ele>4893</ele>
        <time>2015-09-04T11:02:28Z</time>
      </trkpt>
      <trkpt lat="33.7854" lon="77.59238">
        <ele>4893</ele>
        <time>2015-09-04T11:02:30Z</time>
      </trkpt>
      <trkpt lat="33.78542" lon="77.59244">
        <ele>4892</ele>
        <time>2015-09-04T11:02:36Z</time>
      </trkpt>
      <trkpt lat="33.78543" lon="77.59248">
        <ele>4891.4</ele>
        <time>2015-09-04T11:02:41Z</time>
      </trkpt>
      <trkpt lat="33.78544" lon="77.5925">
        <ele>4891</ele>
        <time>2015-09-04T11:02:43Z</time>
      </trkpt>
      <trkpt lat="33.78546" lon="77.59252">
        <ele>4890.6</ele>
        <time>2015-09-04T11:02:46Z</time>
      </trkpt>
      <trkpt lat="33.78547" lon="77.59254">
        <ele>4889.8</ele>
        <time>2015-09-04T11:02:49Z</time>
      </trkpt>
      <trkpt lat="33.78548" lon="77.59256">
        <ele>4888.6</ele>
        <time>2015-09-04T11:02:52Z</time>
      </trkpt>
      <trkpt lat="33.78548" lon="77.59258">
        <ele>4888.4</ele>
        <time>2015-09-04T11:02:53Z</time>
      </trkpt>
      <trkpt lat="33.7855" lon="77.5926">
        <ele>4887.6</ele>
        <time>2015-09-04T11:02:56Z</time>
      </trkpt>
      <trkpt lat="33.78552" lon="77.59264">
        <ele>4887</ele>
        <time>2015-09-04T11:03:01Z</time>
      </trkpt>
      <trkpt lat="33.78553" lon="77.59266">
        <ele>4886.6</ele>
        <time>2015-09-04T11:03:05Z</time>
      </trkpt>
      <trkpt lat="33.78555" lon="77.59272">
        <ele>4885.4</ele>
        <time>2015-09-04T11:03:12Z</time>
      </trkpt>
      <trkpt lat="33.78555" lon="77.5928">
        <ele>4884.4</ele>
        <time>2015-09-04T11:03:21Z</time>
      </trkpt>
      <trkpt lat="33.78557" lon="77.59285">
        <ele>4883.2</ele>
        <time>2015-09-04T11:03:28Z</time>
      </trkpt>
      <trkpt lat="33.7856" lon="77.59291">
        <ele>4882</ele>
        <time>2015-09-04T11:03:39Z</time>
      </trkpt>
      <trkpt lat="33.78562" lon="77.59296">
        <ele>4880.8</ele>
        <time>2015-09-04T11:03:45Z</time>
      </trkpt>
      <trkpt lat="33.78566" lon="77.59305">
        <ele>4879.8</ele>
        <time>2015-09-04T11:03:56Z</time>
      </trkpt>
      <trkpt lat="33.78569" lon="77.59309">
        <ele>4879.2</ele>
        <time>2015-09-04T11:04:01Z</time>
      </trkpt>
      <trkpt lat="33.78571" lon="77.59318">
        <ele>4878.6</ele>
        <time>2015-09-04T11:04:11Z</time>
      </trkpt>
      <trkpt lat="33.78575" lon="77.59326">
        <ele>4877.6</ele>
        <time>2015-09-04T11:04:21Z</time>
      </trkpt>
      <trkpt lat="33.78578" lon="77.59328">
        <ele>4877.2</ele>
        <time>2015-09-04T11:04:25Z</time>
      </trkpt>
      <trkpt lat="33.78584" lon="77.59336">
        <ele>4876.6</ele>
        <time>2015-09-04T11:04:35Z</time>
      </trkpt>
      <trkpt lat="33.78584" lon="77.59338">
        <ele>4876.6</ele>
        <time>2015-09-04T11:04:37Z</time>
      </trkpt>
      <trkpt lat="33.78587" lon="77.59341">
        <ele>4876.6</ele>
        <time>2015-09-04T11:04:40Z</time>
      </trkpt>
      <trkpt lat="33.7859" lon="77.59356">
        <ele>4875.6</ele>
        <time>2015-09-04T11:04:54Z</time>
      </trkpt>
      <trkpt lat="33.78592" lon="77.59361">
        <ele>4874.6</ele>
        <time>2015-09-04T11:05:01Z</time>
      </trkpt>
      <trkpt lat="33.78596" lon="77.59368">
        <ele>4873.4</ele>
        <time>2015-09-04T11:05:08Z</time>
      </trkpt>
      <trkpt lat="33.78596" lon="77.59371">
        <ele>4873.4</ele>
        <time>2015-09-04T11:05:11Z</time>
      </trkpt>
      <trkpt lat="33.78599" lon="77.59376">
        <ele>4873.2</ele>
        <time>2015-09-04T11:05:14Z</time>
      </trkpt>
      <trkpt lat="33.78601" lon="77.59378">
        <ele>4873.4</ele>
        <time>2015-09-04T11:05:17Z</time>
      </trkpt>
      <trkpt lat="33.78602" lon="77.59381">
        <ele>4873.4</ele>
        <time>2015-09-04T11:05:20Z</time>
      </trkpt>
      <trkpt lat="33.78606" lon="77.59402">
        <ele>4873.2</ele>
        <time>2015-09-04T11:05:38Z</time>
      </trkpt>
      <trkpt lat="33.78606" lon="77.59404">
        <ele>4873</ele>
        <time>2015-09-04T11:05:40Z</time>
      </trkpt>
      <trkpt lat="33.78605" lon="77.59406">
        <ele>4873</ele>
        <time>2015-09-04T11:05:42Z</time>
      </trkpt>
      <trkpt lat="33.78603" lon="77.5943">
        <ele>4873</ele>
        <time>2015-09-04T11:06:04Z</time>
      </trkpt>
      <trkpt lat="33.78592" lon="77.59446">
        <ele>4872.8</ele>
        <time>2015-09-04T11:06:21Z</time>
      </trkpt>
      <trkpt lat="33.78592" lon="77.59449">
        <ele>4873.2</ele>
        <time>2015-09-04T11:06:26Z</time>
      </trkpt>
      <trkpt lat="33.78576" lon="77.59458">
        <ele>4873.4</ele>
        <time>2015-09-04T11:06:43Z</time>
      </trkpt>
      <trkpt lat="33.78571" lon="77.59465">
        <ele>4873.2</ele>
        <time>2015-09-04T11:06:56Z</time>
      </trkpt>
      <trkpt lat="33.7857" lon="77.59474">
        <ele>4873.4</ele>
        <time>2015-09-04T11:07:04Z</time>
      </trkpt>
      <trkpt lat="33.78577" lon="77.59493">
        <ele>4873.4</ele>
        <time>2015-09-04T11:07:23Z</time>
      </trkpt>
      <trkpt lat="33.7858" lon="77.59501">
        <ele>4873.2</ele>
        <time>2015-09-04T11:07:30Z</time>
      </trkpt>
      <trkpt lat="33.78583" lon="77.59503">
        <ele>4873.2</ele>
        <time>2015-09-04T11:07:34Z</time>
      </trkpt>
      <trkpt lat="33.78589" lon="77.5951">
        <ele>4873.4</ele>
        <time>2015-09-04T11:07:41Z</time>
      </trkpt>
      <trkpt lat="33.7859" lon="77.59511">
        <ele>4873.4</ele>
        <time>2015-09-04T11:07:43Z</time>
      </trkpt>
      <trkpt lat="33.78593" lon="77.59516">
        <ele>4873</ele>
        <time>2015-09-04T11:07:49Z</time>
      </trkpt>
      <trkpt lat="33.78595" lon="77.59538">
        <ele>4873.4</ele>
        <time>2015-09-04T11:08:13Z</time>
      </trkpt>
      <trkpt lat="33.78596" lon="77.59549">
        <ele>4873.4</ele>
        <time>2015-09-04T11:08:24Z</time>
      </trkpt>
      <trkpt lat="33.78596" lon="77.59564">
        <ele>4873.6</ele>
        <time>2015-09-04T11:08:42Z</time>
      </trkpt>
      <trkpt lat="33.78596" lon="77.59569">
        <ele>4873.6</ele>
        <time>2015-09-04T11:08:46Z</time>
      </trkpt>
      <trkpt lat="33.78595" lon="77.59574">
        <ele>4873.8</ele>
        <time>2015-09-04T11:08:50Z</time>
      </trkpt>
      <trkpt lat="33.78597" lon="77.59578">
        <ele>4873.8</ele>
        <time>2015-09-04T11:08:55Z</time>
      </trkpt>
      <trkpt lat="33.78605" lon="77.59579">
        <ele>4873.8</ele>
        <time>2015-09-04T11:09:04Z</time>
      </trkpt>
      <trkpt lat="33.78607" lon="77.59578">
        <ele>4873.8</ele>
        <time>2015-09-04T11:09:06Z</time>
      </trkpt>
      <trkpt lat="33.7861" lon="77.59576">
        <ele>4874</ele>
        <time>2015-09-04T11:09:09Z</time>
      </trkpt>
      <trkpt lat="33.78608" lon="77.59576">
        <ele>4881.4</ele>
        <time>2015-09-04T11:10:28Z</time>
      </trkpt>
    </trkseg>
  </trk>
</gpx>